<?xml version="1.0" encoding="UTF-8" standalone="no" ?>
<gpx xmlns="http://www.topografix.com/GPX/1/1" xmlns:xsi="http://www.w3.org/2001/XMLSchema-instance" xsi:schemaLocation="http://www.topografix.com/GPX/1/1 http://www.topografix.com/GPX/1/1/gpx.xsd" version="1.1" creator="VisuGPX - https://www.visugpx.com">
  <metadata>
    <name>83 - V - Cotignac </name>
    <desc><![CDATA[grp_trc:]]></desc>
  </metadata>
  <trk>
    <name><![CDATA[24 mars 2023]]></name>
    <cmt><![CDATA[14:03:18]]></cmt>
    <desc><![CDATA[comment ...]]></desc>
    <trkseg>
      <trkpt lat="43.52469" lon="6.15025">
        <ele>219</ele>
        <time>2023-03-24T13:03:20Z</time>
      </trkpt>
      <trkpt lat="43.52469" lon="6.15025">
        <ele>219</ele>
        <time>2023-03-24T13:03:21Z</time>
      </trkpt>
      <trkpt lat="43.52472" lon="6.15021">
        <ele>219</ele>
        <time>2023-03-24T13:03:27Z</time>
      </trkpt>
      <trkpt lat="43.52479" lon="6.15017">
        <ele>218</ele>
        <time>2023-03-24T13:03:33Z</time>
      </trkpt>
      <trkpt lat="43.52483" lon="6.15014">
        <ele>218</ele>
        <time>2023-03-24T13:03:37Z</time>
      </trkpt>
      <trkpt lat="43.52484" lon="6.15009">
        <ele>217</ele>
        <time>2023-03-24T13:03:40Z</time>
      </trkpt>
      <trkpt lat="43.52492" lon="6.14998">
        <ele>217</ele>
        <time>2023-03-24T13:03:50Z</time>
      </trkpt>
      <trkpt lat="43.52493" lon="6.14993">
        <ele>216</ele>
        <time>2023-03-24T13:03:54Z</time>
      </trkpt>
      <trkpt lat="43.52494" lon="6.14988">
        <ele>215</ele>
        <time>2023-03-24T13:03:57Z</time>
      </trkpt>
      <trkpt lat="43.52501" lon="6.14983">
        <ele>213</ele>
        <time>2023-03-24T13:04:04Z</time>
      </trkpt>
      <trkpt lat="43.52504" lon="6.14979">
        <ele>213</ele>
        <time>2023-03-24T13:04:08Z</time>
      </trkpt>
      <trkpt lat="43.52515" lon="6.14969">
        <ele>214</ele>
        <time>2023-03-24T13:04:20Z</time>
      </trkpt>
      <trkpt lat="43.52534" lon="6.1495">
        <ele>219</ele>
        <time>2023-03-24T13:04:39Z</time>
      </trkpt>
      <trkpt lat="43.52537" lon="6.14946">
        <ele>219</ele>
        <time>2023-03-24T13:04:43Z</time>
      </trkpt>
      <trkpt lat="43.52541" lon="6.14943">
        <ele>220</ele>
        <time>2023-03-24T13:04:47Z</time>
      </trkpt>
      <trkpt lat="43.52543" lon="6.14938">
        <ele>221</ele>
        <time>2023-03-24T13:04:51Z</time>
      </trkpt>
      <trkpt lat="43.52544" lon="6.14932">
        <ele>221</ele>
        <time>2023-03-24T13:04:55Z</time>
      </trkpt>
      <trkpt lat="43.52546" lon="6.14929">
        <ele>220</ele>
        <time>2023-03-24T13:04:58Z</time>
      </trkpt>
      <trkpt lat="43.52546" lon="6.14914">
        <ele>217</ele>
        <time>2023-03-24T13:05:08Z</time>
      </trkpt>
      <trkpt lat="43.52547" lon="6.1491">
        <ele>214</ele>
        <time>2023-03-24T13:05:24Z</time>
      </trkpt>
      <trkpt lat="43.52551" lon="6.1491">
        <ele>215</ele>
        <time>2023-03-24T13:05:44Z</time>
      </trkpt>
      <trkpt lat="43.52561" lon="6.14902">
        <ele>215</ele>
        <time>2023-03-24T13:05:58Z</time>
      </trkpt>
      <trkpt lat="43.52564" lon="6.14902">
        <ele>215</ele>
        <time>2023-03-24T13:06:03Z</time>
      </trkpt>
      <trkpt lat="43.52567" lon="6.14899">
        <ele>215</ele>
        <time>2023-03-24T13:06:09Z</time>
      </trkpt>
      <trkpt lat="43.52575" lon="6.14901">
        <ele>216</ele>
        <time>2023-03-24T13:06:20Z</time>
      </trkpt>
      <trkpt lat="43.52583" lon="6.149">
        <ele>217</ele>
        <time>2023-03-24T13:06:28Z</time>
      </trkpt>
      <trkpt lat="43.52586" lon="6.14901">
        <ele>218</ele>
        <time>2023-03-24T13:06:32Z</time>
      </trkpt>
      <trkpt lat="43.52595" lon="6.14906">
        <ele>217</ele>
        <time>2023-03-24T13:06:41Z</time>
      </trkpt>
      <trkpt lat="43.52597" lon="6.14909">
        <ele>217</ele>
        <time>2023-03-24T13:06:45Z</time>
      </trkpt>
      <trkpt lat="43.52621" lon="6.14935">
        <ele>226</ele>
        <time>2023-03-24T13:07:15Z</time>
      </trkpt>
      <trkpt lat="43.52626" lon="6.14943">
        <ele>228</ele>
        <time>2023-03-24T13:07:23Z</time>
      </trkpt>
      <trkpt lat="43.52629" lon="6.14947">
        <ele>227</ele>
        <time>2023-03-24T13:07:27Z</time>
      </trkpt>
      <trkpt lat="43.52632" lon="6.1495">
        <ele>228</ele>
        <time>2023-03-24T13:07:31Z</time>
      </trkpt>
      <trkpt lat="43.52635" lon="6.14954">
        <ele>230</ele>
        <time>2023-03-24T13:07:36Z</time>
      </trkpt>
      <trkpt lat="43.52637" lon="6.14957">
        <ele>231</ele>
        <time>2023-03-24T13:07:45Z</time>
      </trkpt>
      <trkpt lat="43.52638" lon="6.14952">
        <ele>231</ele>
        <time>2023-03-24T13:07:51Z</time>
      </trkpt>
      <trkpt lat="43.52639" lon="6.14946">
        <ele>230</ele>
        <time>2023-03-24T13:07:54Z</time>
      </trkpt>
      <trkpt lat="43.52641" lon="6.14942">
        <ele>228</ele>
        <time>2023-03-24T13:08:00Z</time>
      </trkpt>
      <trkpt lat="43.52653" lon="6.14934">
        <ele>230</ele>
        <time>2023-03-24T13:08:28Z</time>
      </trkpt>
      <trkpt lat="43.52657" lon="6.14933">
        <ele>230</ele>
        <time>2023-03-24T13:09:07Z</time>
      </trkpt>
      <trkpt lat="43.52659" lon="6.14936">
        <ele>232</ele>
        <time>2023-03-24T13:09:14Z</time>
      </trkpt>
      <trkpt lat="43.52663" lon="6.14938">
        <ele>235</ele>
        <time>2023-03-24T13:09:21Z</time>
      </trkpt>
      <trkpt lat="43.52667" lon="6.14939">
        <ele>234</ele>
        <time>2023-03-24T13:09:26Z</time>
      </trkpt>
      <trkpt lat="43.52674" lon="6.14941">
        <ele>236</ele>
        <time>2023-03-24T13:09:36Z</time>
      </trkpt>
      <trkpt lat="43.52678" lon="6.14942">
        <ele>235</ele>
        <time>2023-03-24T13:09:41Z</time>
      </trkpt>
      <trkpt lat="43.52679" lon="6.14947">
        <ele>235</ele>
        <time>2023-03-24T13:10:28Z</time>
      </trkpt>
      <trkpt lat="43.52681" lon="6.14958">
        <ele>235</ele>
        <time>2023-03-24T13:10:37Z</time>
      </trkpt>
      <trkpt lat="43.52682" lon="6.14964">
        <ele>236</ele>
        <time>2023-03-24T13:10:41Z</time>
      </trkpt>
      <trkpt lat="43.52685" lon="6.14967">
        <ele>237</ele>
        <time>2023-03-24T13:10:46Z</time>
      </trkpt>
      <trkpt lat="43.52687" lon="6.14981">
        <ele>237</ele>
        <time>2023-03-24T13:10:58Z</time>
      </trkpt>
      <trkpt lat="43.52689" lon="6.14993">
        <ele>238</ele>
        <time>2023-03-24T13:11:08Z</time>
      </trkpt>
      <trkpt lat="43.52691" lon="6.15007">
        <ele>240</ele>
        <time>2023-03-24T13:11:18Z</time>
      </trkpt>
      <trkpt lat="43.52692" lon="6.1502">
        <ele>234</ele>
        <time>2023-03-24T13:11:42Z</time>
      </trkpt>
      <trkpt lat="43.52699" lon="6.1503">
        <ele>230</ele>
        <time>2023-03-24T13:12:56Z</time>
      </trkpt>
      <trkpt lat="43.52706" lon="6.15026">
        <ele>231</ele>
        <time>2023-03-24T13:22:03Z</time>
      </trkpt>
      <trkpt lat="43.52707" lon="6.15034">
        <ele>220</ele>
        <time>2023-03-24T13:22:08Z</time>
      </trkpt>
      <trkpt lat="43.52702" lon="6.15041">
        <ele>219</ele>
        <time>2023-03-24T13:22:11Z</time>
      </trkpt>
      <trkpt lat="43.52703" lon="6.15049">
        <ele>220</ele>
        <time>2023-03-24T13:22:14Z</time>
      </trkpt>
      <trkpt lat="43.52704" lon="6.15055">
        <ele>221</ele>
        <time>2023-03-24T13:22:17Z</time>
      </trkpt>
      <trkpt lat="43.52706" lon="6.1506">
        <ele>224</ele>
        <time>2023-03-24T13:22:21Z</time>
      </trkpt>
      <trkpt lat="43.5271" lon="6.15061">
        <ele>225</ele>
        <time>2023-03-24T13:22:26Z</time>
      </trkpt>
      <trkpt lat="43.52714" lon="6.15059">
        <ele>225</ele>
        <time>2023-03-24T13:22:33Z</time>
      </trkpt>
      <trkpt lat="43.5273" lon="6.15046">
        <ele>228</ele>
        <time>2023-03-24T13:22:57Z</time>
      </trkpt>
      <trkpt lat="43.52731" lon="6.15041">
        <ele>228</ele>
        <time>2023-03-24T13:23:02Z</time>
      </trkpt>
      <trkpt lat="43.52734" lon="6.15039">
        <ele>227</ele>
        <time>2023-03-24T13:23:06Z</time>
      </trkpt>
      <trkpt lat="43.52741" lon="6.15036">
        <ele>229</ele>
        <time>2023-03-24T13:23:15Z</time>
      </trkpt>
      <trkpt lat="43.52751" lon="6.1503">
        <ele>231</ele>
        <time>2023-03-24T13:23:26Z</time>
      </trkpt>
      <trkpt lat="43.52759" lon="6.15026">
        <ele>232</ele>
        <time>2023-03-24T13:23:35Z</time>
      </trkpt>
      <trkpt lat="43.52763" lon="6.15026">
        <ele>232</ele>
        <time>2023-03-24T13:23:39Z</time>
      </trkpt>
      <trkpt lat="43.52767" lon="6.15028">
        <ele>231</ele>
        <time>2023-03-24T13:23:43Z</time>
      </trkpt>
      <trkpt lat="43.52776" lon="6.15039">
        <ele>230</ele>
        <time>2023-03-24T13:23:54Z</time>
      </trkpt>
      <trkpt lat="43.52779" lon="6.15039">
        <ele>229</ele>
        <time>2023-03-24T13:23:59Z</time>
      </trkpt>
      <trkpt lat="43.52782" lon="6.15035">
        <ele>229</ele>
        <time>2023-03-24T13:24:27Z</time>
      </trkpt>
      <trkpt lat="43.52787" lon="6.15028">
        <ele>230</ele>
        <time>2023-03-24T13:24:38Z</time>
      </trkpt>
      <trkpt lat="43.52791" lon="6.15025">
        <ele>232</ele>
        <time>2023-03-24T13:24:44Z</time>
      </trkpt>
      <trkpt lat="43.52793" lon="6.15021">
        <ele>232</ele>
        <time>2023-03-24T13:24:49Z</time>
      </trkpt>
      <trkpt lat="43.52796" lon="6.15017">
        <ele>234</ele>
        <time>2023-03-24T13:24:54Z</time>
      </trkpt>
      <trkpt lat="43.52802" lon="6.15013">
        <ele>234</ele>
        <time>2023-03-24T13:25:03Z</time>
      </trkpt>
      <trkpt lat="43.52805" lon="6.15009">
        <ele>233</ele>
        <time>2023-03-24T13:25:08Z</time>
      </trkpt>
      <trkpt lat="43.52812" lon="6.15001">
        <ele>232</ele>
        <time>2023-03-24T13:25:21Z</time>
      </trkpt>
      <trkpt lat="43.52821" lon="6.14997">
        <ele>235</ele>
        <time>2023-03-24T13:26:30Z</time>
      </trkpt>
      <trkpt lat="43.5283" lon="6.14991">
        <ele>236</ele>
        <time>2023-03-24T13:26:41Z</time>
      </trkpt>
      <trkpt lat="43.52837" lon="6.14984">
        <ele>242</ele>
        <time>2023-03-24T13:26:50Z</time>
      </trkpt>
      <trkpt lat="43.52845" lon="6.14977">
        <ele>248</ele>
        <time>2023-03-24T13:28:01Z</time>
      </trkpt>
      <trkpt lat="43.52855" lon="6.14979">
        <ele>240</ele>
        <time>2023-03-24T13:28:15Z</time>
      </trkpt>
      <trkpt lat="43.52858" lon="6.14991">
        <ele>236</ele>
        <time>2023-03-24T13:28:33Z</time>
      </trkpt>
      <trkpt lat="43.52867" lon="6.14991">
        <ele>235</ele>
        <time>2023-03-24T13:28:48Z</time>
      </trkpt>
      <trkpt lat="43.52873" lon="6.14981">
        <ele>240</ele>
        <time>2023-03-24T13:28:59Z</time>
      </trkpt>
      <trkpt lat="43.52874" lon="6.14968">
        <ele>250</ele>
        <time>2023-03-24T13:29:10Z</time>
      </trkpt>
      <trkpt lat="43.52877" lon="6.14956">
        <ele>253</ele>
        <time>2023-03-24T13:29:23Z</time>
      </trkpt>
      <trkpt lat="43.52885" lon="6.14949">
        <ele>250</ele>
        <time>2023-03-24T13:29:42Z</time>
      </trkpt>
      <trkpt lat="43.52895" lon="6.14944">
        <ele>248</ele>
        <time>2023-03-24T13:30:03Z</time>
      </trkpt>
      <trkpt lat="43.5289" lon="6.14932">
        <ele>258</ele>
        <time>2023-03-24T13:30:39Z</time>
      </trkpt>
      <trkpt lat="43.52888" lon="6.14924">
        <ele>252</ele>
        <time>2023-03-24T13:31:19Z</time>
      </trkpt>
      <trkpt lat="43.52893" lon="6.14923">
        <ele>252</ele>
        <time>2023-03-24T13:31:22Z</time>
      </trkpt>
      <trkpt lat="43.52891" lon="6.14921">
        <ele>250</ele>
        <time>2023-03-24T13:31:46Z</time>
      </trkpt>
      <trkpt lat="43.52897" lon="6.14912">
        <ele>250</ele>
        <time>2023-03-24T13:31:54Z</time>
      </trkpt>
      <trkpt lat="43.52902" lon="6.14902">
        <ele>251</ele>
        <time>2023-03-24T13:32:15Z</time>
      </trkpt>
      <trkpt lat="43.52901" lon="6.14902">
        <ele>256</ele>
        <time>2023-03-24T13:32:35Z</time>
      </trkpt>
      <trkpt lat="43.52906" lon="6.14901">
        <ele>255</ele>
        <time>2023-03-24T13:32:44Z</time>
      </trkpt>
      <trkpt lat="43.5291" lon="6.14902">
        <ele>253</ele>
        <time>2023-03-24T13:32:56Z</time>
      </trkpt>
      <trkpt lat="43.52913" lon="6.14899">
        <ele>252</ele>
        <time>2023-03-24T13:33:01Z</time>
      </trkpt>
      <trkpt lat="43.5291" lon="6.14892">
        <ele>246</ele>
        <time>2023-03-24T13:33:40Z</time>
      </trkpt>
      <trkpt lat="43.52908" lon="6.14888">
        <ele>245</ele>
        <time>2023-03-24T13:33:45Z</time>
      </trkpt>
      <trkpt lat="43.52905" lon="6.14886">
        <ele>246</ele>
        <time>2023-03-24T13:33:57Z</time>
      </trkpt>
      <trkpt lat="43.52898" lon="6.14879">
        <ele>243</ele>
        <time>2023-03-24T13:34:07Z</time>
      </trkpt>
      <trkpt lat="43.52898" lon="6.14878">
        <ele>245</ele>
        <time>2023-03-24T13:34:14Z</time>
      </trkpt>
      <trkpt lat="43.52907" lon="6.14882">
        <ele>252</ele>
        <time>2023-03-24T13:34:56Z</time>
      </trkpt>
      <trkpt lat="43.52909" lon="6.14868">
        <ele>251</ele>
        <time>2023-03-24T13:35:31Z</time>
      </trkpt>
      <trkpt lat="43.52912" lon="6.14895">
        <ele>253</ele>
        <time>2023-03-24T13:36:26Z</time>
      </trkpt>
      <trkpt lat="43.52907" lon="6.14889">
        <ele>252</ele>
        <time>2023-03-24T13:36:40Z</time>
      </trkpt>
      <trkpt lat="43.52907" lon="6.1489">
        <ele>249</ele>
        <time>2023-03-24T13:37:16Z</time>
      </trkpt>
      <trkpt lat="43.52897" lon="6.14887">
        <ele>247</ele>
        <time>2023-03-24T13:38:08Z</time>
      </trkpt>
      <trkpt lat="43.52898" lon="6.14874">
        <ele>248</ele>
        <time>2023-03-24T13:38:20Z</time>
      </trkpt>
      <trkpt lat="43.52905" lon="6.14865">
        <ele>246</ele>
        <time>2023-03-24T13:38:28Z</time>
      </trkpt>
      <trkpt lat="43.52912" lon="6.14854">
        <ele>251</ele>
        <time>2023-03-24T13:38:37Z</time>
      </trkpt>
      <trkpt lat="43.5292" lon="6.14847">
        <ele>255</ele>
        <time>2023-03-24T13:39:53Z</time>
      </trkpt>
      <trkpt lat="43.52916" lon="6.14847">
        <ele>252</ele>
        <time>2023-03-24T13:40:25Z</time>
      </trkpt>
      <trkpt lat="43.52918" lon="6.14852">
        <ele>253</ele>
        <time>2023-03-24T13:40:39Z</time>
      </trkpt>
      <trkpt lat="43.5292" lon="6.14847">
        <ele>256</ele>
        <time>2023-03-24T13:40:45Z</time>
      </trkpt>
      <trkpt lat="43.52917" lon="6.14845">
        <ele>254</ele>
        <time>2023-03-24T13:40:55Z</time>
      </trkpt>
      <trkpt lat="43.52913" lon="6.14846">
        <ele>253</ele>
        <time>2023-03-24T13:40:59Z</time>
      </trkpt>
      <trkpt lat="43.52904" lon="6.14849">
        <ele>251</ele>
        <time>2023-03-24T13:41:41Z</time>
      </trkpt>
      <trkpt lat="43.52899" lon="6.14845">
        <ele>250</ele>
        <time>2023-03-24T13:42:58Z</time>
      </trkpt>
      <trkpt lat="43.5289" lon="6.14848">
        <ele>247</ele>
        <time>2023-03-24T13:43:10Z</time>
      </trkpt>
      <trkpt lat="43.52885" lon="6.1486">
        <ele>247</ele>
        <time>2023-03-24T13:43:36Z</time>
      </trkpt>
      <trkpt lat="43.52879" lon="6.1487">
        <ele>242</ele>
        <time>2023-03-24T13:43:47Z</time>
      </trkpt>
      <trkpt lat="43.5287" lon="6.14847">
        <ele>246</ele>
        <time>2023-03-24T13:44:08Z</time>
      </trkpt>
      <trkpt lat="43.5286" lon="6.14851">
        <ele>248</ele>
        <time>2023-03-24T13:44:37Z</time>
      </trkpt>
      <trkpt lat="43.52852" lon="6.14828">
        <ele>247</ele>
        <time>2023-03-24T13:44:57Z</time>
      </trkpt>
      <trkpt lat="43.52852" lon="6.14815">
        <ele>245</ele>
        <time>2023-03-24T13:45:06Z</time>
      </trkpt>
      <trkpt lat="43.52853" lon="6.14792">
        <ele>251</ele>
        <time>2023-03-24T13:45:38Z</time>
      </trkpt>
      <trkpt lat="43.52852" lon="6.14788">
        <ele>251</ele>
        <time>2023-03-24T13:45:42Z</time>
      </trkpt>
      <trkpt lat="43.52851" lon="6.14782">
        <ele>251</ele>
        <time>2023-03-24T13:45:46Z</time>
      </trkpt>
      <trkpt lat="43.5285" lon="6.14776">
        <ele>252</ele>
        <time>2023-03-24T13:45:51Z</time>
      </trkpt>
      <trkpt lat="43.52851" lon="6.14771">
        <ele>253</ele>
        <time>2023-03-24T13:45:55Z</time>
      </trkpt>
      <trkpt lat="43.52848" lon="6.14762">
        <ele>249</ele>
        <time>2023-03-24T13:46:04Z</time>
      </trkpt>
      <trkpt lat="43.52844" lon="6.14747">
        <ele>246</ele>
        <time>2023-03-24T13:46:19Z</time>
      </trkpt>
      <trkpt lat="43.52843" lon="6.14742">
        <ele>245</ele>
        <time>2023-03-24T13:46:23Z</time>
      </trkpt>
      <trkpt lat="43.52842" lon="6.14738">
        <ele>245</ele>
        <time>2023-03-24T13:46:26Z</time>
      </trkpt>
      <trkpt lat="43.52838" lon="6.14736">
        <ele>245</ele>
        <time>2023-03-24T13:46:29Z</time>
      </trkpt>
      <trkpt lat="43.52836" lon="6.14732">
        <ele>245</ele>
        <time>2023-03-24T13:46:33Z</time>
      </trkpt>
      <trkpt lat="43.52833" lon="6.14729">
        <ele>246</ele>
        <time>2023-03-24T13:46:37Z</time>
      </trkpt>
      <trkpt lat="43.52825" lon="6.14719">
        <ele>248</ele>
        <time>2023-03-24T13:46:49Z</time>
      </trkpt>
      <trkpt lat="43.52822" lon="6.14716">
        <ele>248</ele>
        <time>2023-03-24T13:46:52Z</time>
      </trkpt>
      <trkpt lat="43.52819" lon="6.14713">
        <ele>247</ele>
        <time>2023-03-24T13:46:56Z</time>
      </trkpt>
      <trkpt lat="43.52809" lon="6.14704">
        <ele>248</ele>
        <time>2023-03-24T13:47:08Z</time>
      </trkpt>
      <trkpt lat="43.52806" lon="6.14702">
        <ele>249</ele>
        <time>2023-03-24T13:47:12Z</time>
      </trkpt>
      <trkpt lat="43.52804" lon="6.14698">
        <ele>250</ele>
        <time>2023-03-24T13:47:16Z</time>
      </trkpt>
      <trkpt lat="43.52802" lon="6.14693">
        <ele>251</ele>
        <time>2023-03-24T13:47:20Z</time>
      </trkpt>
      <trkpt lat="43.52799" lon="6.14689">
        <ele>252</ele>
        <time>2023-03-24T13:47:24Z</time>
      </trkpt>
      <trkpt lat="43.52792" lon="6.14686">
        <ele>250</ele>
        <time>2023-03-24T13:47:32Z</time>
      </trkpt>
      <trkpt lat="43.52788" lon="6.14685">
        <ele>250</ele>
        <time>2023-03-24T13:47:36Z</time>
      </trkpt>
      <trkpt lat="43.52785" lon="6.14686">
        <ele>248</ele>
        <time>2023-03-24T13:47:40Z</time>
      </trkpt>
      <trkpt lat="43.52781" lon="6.14686">
        <ele>249</ele>
        <time>2023-03-24T13:47:45Z</time>
      </trkpt>
      <trkpt lat="43.52773" lon="6.14687">
        <ele>248</ele>
        <time>2023-03-24T13:47:56Z</time>
      </trkpt>
      <trkpt lat="43.5277" lon="6.14685">
        <ele>248</ele>
        <time>2023-03-24T13:48:07Z</time>
      </trkpt>
      <trkpt lat="43.52769" lon="6.1468">
        <ele>247</ele>
        <time>2023-03-24T13:48:14Z</time>
      </trkpt>
      <trkpt lat="43.52769" lon="6.14675">
        <ele>248</ele>
        <time>2023-03-24T13:48:22Z</time>
      </trkpt>
      <trkpt lat="43.52767" lon="6.1467">
        <ele>248</ele>
        <time>2023-03-24T13:49:11Z</time>
      </trkpt>
      <trkpt lat="43.52768" lon="6.14666">
        <ele>251</ele>
        <time>2023-03-24T13:49:15Z</time>
      </trkpt>
      <trkpt lat="43.5277" lon="6.14661">
        <ele>252</ele>
        <time>2023-03-24T13:49:20Z</time>
      </trkpt>
      <trkpt lat="43.52769" lon="6.1465">
        <ele>253</ele>
        <time>2023-03-24T13:49:31Z</time>
      </trkpt>
      <trkpt lat="43.5277" lon="6.14645">
        <ele>253</ele>
        <time>2023-03-24T13:49:35Z</time>
      </trkpt>
      <trkpt lat="43.52773" lon="6.14641">
        <ele>253</ele>
        <time>2023-03-24T13:49:38Z</time>
      </trkpt>
      <trkpt lat="43.5278" lon="6.14635">
        <ele>256</ele>
        <time>2023-03-24T13:49:47Z</time>
      </trkpt>
      <trkpt lat="43.52784" lon="6.14636">
        <ele>257</ele>
        <time>2023-03-24T13:49:51Z</time>
      </trkpt>
      <trkpt lat="43.52787" lon="6.14634">
        <ele>257</ele>
        <time>2023-03-24T13:49:54Z</time>
      </trkpt>
      <trkpt lat="43.52792" lon="6.14628">
        <ele>257</ele>
        <time>2023-03-24T13:50:02Z</time>
      </trkpt>
      <trkpt lat="43.52796" lon="6.14626">
        <ele>256</ele>
        <time>2023-03-24T13:50:05Z</time>
      </trkpt>
      <trkpt lat="43.52798" lon="6.14622">
        <ele>256</ele>
        <time>2023-03-24T13:50:09Z</time>
      </trkpt>
      <trkpt lat="43.528" lon="6.14617">
        <ele>256</ele>
        <time>2023-03-24T13:50:13Z</time>
      </trkpt>
      <trkpt lat="43.52803" lon="6.14613">
        <ele>256</ele>
        <time>2023-03-24T13:50:17Z</time>
      </trkpt>
      <trkpt lat="43.52806" lon="6.14611">
        <ele>258</ele>
        <time>2023-03-24T13:50:21Z</time>
      </trkpt>
      <trkpt lat="43.52807" lon="6.14606">
        <ele>259</ele>
        <time>2023-03-24T13:50:27Z</time>
      </trkpt>
      <trkpt lat="43.5281" lon="6.14605">
        <ele>261</ele>
        <time>2023-03-24T13:50:32Z</time>
      </trkpt>
      <trkpt lat="43.52814" lon="6.14603">
        <ele>262</ele>
        <time>2023-03-24T13:50:36Z</time>
      </trkpt>
      <trkpt lat="43.52818" lon="6.146">
        <ele>263</ele>
        <time>2023-03-24T13:50:40Z</time>
      </trkpt>
      <trkpt lat="43.52821" lon="6.14569">
        <ele>264</ele>
        <time>2023-03-24T13:51:06Z</time>
      </trkpt>
      <trkpt lat="43.52824" lon="6.14554">
        <ele>263</ele>
        <time>2023-03-24T13:51:19Z</time>
      </trkpt>
      <trkpt lat="43.52825" lon="6.14537">
        <ele>264</ele>
        <time>2023-03-24T13:51:31Z</time>
      </trkpt>
      <trkpt lat="43.52826" lon="6.14532">
        <ele>264</ele>
        <time>2023-03-24T13:51:35Z</time>
      </trkpt>
      <trkpt lat="43.52826" lon="6.14517">
        <ele>265</ele>
        <time>2023-03-24T13:51:46Z</time>
      </trkpt>
      <trkpt lat="43.5283" lon="6.14501">
        <ele>267</ele>
        <time>2023-03-24T13:51:58Z</time>
      </trkpt>
      <trkpt lat="43.52831" lon="6.14491">
        <ele>268</ele>
        <time>2023-03-24T13:52:07Z</time>
      </trkpt>
      <trkpt lat="43.52832" lon="6.14486">
        <ele>268</ele>
        <time>2023-03-24T13:52:11Z</time>
      </trkpt>
      <trkpt lat="43.52831" lon="6.14481">
        <ele>266</ele>
        <time>2023-03-24T13:52:15Z</time>
      </trkpt>
      <trkpt lat="43.52831" lon="6.14448">
        <ele>265</ele>
        <time>2023-03-24T13:52:38Z</time>
      </trkpt>
      <trkpt lat="43.52831" lon="6.14443">
        <ele>264</ele>
        <time>2023-03-24T13:52:41Z</time>
      </trkpt>
      <trkpt lat="43.52832" lon="6.14428">
        <ele>264</ele>
        <time>2023-03-24T13:52:50Z</time>
      </trkpt>
      <trkpt lat="43.52831" lon="6.14411">
        <ele>261</ele>
        <time>2023-03-24T13:53:02Z</time>
      </trkpt>
      <trkpt lat="43.5283" lon="6.14405">
        <ele>261</ele>
        <time>2023-03-24T13:53:06Z</time>
      </trkpt>
      <trkpt lat="43.52833" lon="6.14389">
        <ele>261</ele>
        <time>2023-03-24T13:53:18Z</time>
      </trkpt>
      <trkpt lat="43.52835" lon="6.14385">
        <ele>260</ele>
        <time>2023-03-24T13:53:22Z</time>
      </trkpt>
      <trkpt lat="43.52835" lon="6.1438">
        <ele>260</ele>
        <time>2023-03-24T13:53:26Z</time>
      </trkpt>
      <trkpt lat="43.52835" lon="6.14374">
        <ele>260</ele>
        <time>2023-03-24T13:53:30Z</time>
      </trkpt>
      <trkpt lat="43.52835" lon="6.14368">
        <ele>260</ele>
        <time>2023-03-24T13:53:33Z</time>
      </trkpt>
      <trkpt lat="43.52836" lon="6.14363">
        <ele>260</ele>
        <time>2023-03-24T13:53:36Z</time>
      </trkpt>
      <trkpt lat="43.52838" lon="6.14352">
        <ele>258</ele>
        <time>2023-03-24T13:53:44Z</time>
      </trkpt>
      <trkpt lat="43.5284" lon="6.14342">
        <ele>258</ele>
        <time>2023-03-24T13:53:52Z</time>
      </trkpt>
      <trkpt lat="43.52842" lon="6.14338">
        <ele>258</ele>
        <time>2023-03-24T13:53:56Z</time>
      </trkpt>
      <trkpt lat="43.52846" lon="6.14328">
        <ele>259</ele>
        <time>2023-03-24T13:54:04Z</time>
      </trkpt>
      <trkpt lat="43.52852" lon="6.1432">
        <ele>260</ele>
        <time>2023-03-24T13:54:12Z</time>
      </trkpt>
      <trkpt lat="43.52854" lon="6.14317">
        <ele>261</ele>
        <time>2023-03-24T13:54:15Z</time>
      </trkpt>
      <trkpt lat="43.5286" lon="6.1431">
        <ele>261</ele>
        <time>2023-03-24T13:54:23Z</time>
      </trkpt>
      <trkpt lat="43.52864" lon="6.1431">
        <ele>260</ele>
        <time>2023-03-24T13:54:27Z</time>
      </trkpt>
      <trkpt lat="43.52867" lon="6.14308">
        <ele>258</ele>
        <time>2023-03-24T13:54:31Z</time>
      </trkpt>
      <trkpt lat="43.52869" lon="6.14303">
        <ele>258</ele>
        <time>2023-03-24T13:54:35Z</time>
      </trkpt>
      <trkpt lat="43.52868" lon="6.14292">
        <ele>261</ele>
        <time>2023-03-24T13:54:42Z</time>
      </trkpt>
      <trkpt lat="43.5287" lon="6.14287">
        <ele>263</ele>
        <time>2023-03-24T13:54:45Z</time>
      </trkpt>
      <trkpt lat="43.52875" lon="6.14274">
        <ele>265</ele>
        <time>2023-03-24T13:54:57Z</time>
      </trkpt>
      <trkpt lat="43.52875" lon="6.14258">
        <ele>261</ele>
        <time>2023-03-24T13:55:10Z</time>
      </trkpt>
      <trkpt lat="43.52875" lon="6.14253">
        <ele>261</ele>
        <time>2023-03-24T13:55:14Z</time>
      </trkpt>
      <trkpt lat="43.52877" lon="6.1425">
        <ele>256</ele>
        <time>2023-03-24T13:56:08Z</time>
      </trkpt>
      <trkpt lat="43.52881" lon="6.14241">
        <ele>256</ele>
        <time>2023-03-24T13:56:16Z</time>
      </trkpt>
      <trkpt lat="43.52884" lon="6.14237">
        <ele>255</ele>
        <time>2023-03-24T13:56:38Z</time>
      </trkpt>
      <trkpt lat="43.52886" lon="6.14233">
        <ele>253</ele>
        <time>2023-03-24T13:56:41Z</time>
      </trkpt>
      <trkpt lat="43.5289" lon="6.1423">
        <ele>253</ele>
        <time>2023-03-24T13:56:47Z</time>
      </trkpt>
      <trkpt lat="43.52892" lon="6.14226">
        <ele>255</ele>
        <time>2023-03-24T13:56:51Z</time>
      </trkpt>
      <trkpt lat="43.52893" lon="6.14215">
        <ele>260</ele>
        <time>2023-03-24T13:57:01Z</time>
      </trkpt>
      <trkpt lat="43.52893" lon="6.1421">
        <ele>261</ele>
        <time>2023-03-24T13:57:05Z</time>
      </trkpt>
      <trkpt lat="43.52895" lon="6.14205">
        <ele>260</ele>
        <time>2023-03-24T13:57:10Z</time>
      </trkpt>
      <trkpt lat="43.52913" lon="6.14187">
        <ele>261</ele>
        <time>2023-03-24T13:57:36Z</time>
      </trkpt>
      <trkpt lat="43.52917" lon="6.14184">
        <ele>263</ele>
        <time>2023-03-24T13:57:41Z</time>
      </trkpt>
      <trkpt lat="43.52925" lon="6.14172">
        <ele>266</ele>
        <time>2023-03-24T13:57:53Z</time>
      </trkpt>
      <trkpt lat="43.5293" lon="6.14164">
        <ele>268</ele>
        <time>2023-03-24T13:58:02Z</time>
      </trkpt>
      <trkpt lat="43.5294" lon="6.14141">
        <ele>269</ele>
        <time>2023-03-24T13:58:23Z</time>
      </trkpt>
      <trkpt lat="43.52943" lon="6.14138">
        <ele>270</ele>
        <time>2023-03-24T13:58:28Z</time>
      </trkpt>
      <trkpt lat="43.52949" lon="6.14133">
        <ele>272</ele>
        <time>2023-03-24T13:58:36Z</time>
      </trkpt>
      <trkpt lat="43.52955" lon="6.14125">
        <ele>272</ele>
        <time>2023-03-24T13:58:46Z</time>
      </trkpt>
      <trkpt lat="43.5296" lon="6.14117">
        <ele>272</ele>
        <time>2023-03-24T13:58:56Z</time>
      </trkpt>
      <trkpt lat="43.52963" lon="6.14107">
        <ele>273</ele>
        <time>2023-03-24T13:59:04Z</time>
      </trkpt>
      <trkpt lat="43.5297" lon="6.14095">
        <ele>275</ele>
        <time>2023-03-24T13:59:17Z</time>
      </trkpt>
      <trkpt lat="43.52989" lon="6.14077">
        <ele>279</ele>
        <time>2023-03-24T13:59:47Z</time>
      </trkpt>
      <trkpt lat="43.52992" lon="6.14074">
        <ele>280</ele>
        <time>2023-03-24T13:59:53Z</time>
      </trkpt>
      <trkpt lat="43.52995" lon="6.14071">
        <ele>280</ele>
        <time>2023-03-24T13:59:57Z</time>
      </trkpt>
      <trkpt lat="43.52999" lon="6.14069">
        <ele>282</ele>
        <time>2023-03-24T14:00:01Z</time>
      </trkpt>
      <trkpt lat="43.53002" lon="6.14066">
        <ele>282</ele>
        <time>2023-03-24T14:00:06Z</time>
      </trkpt>
      <trkpt lat="43.53004" lon="6.14064">
        <ele>283</ele>
        <time>2023-03-24T14:00:11Z</time>
      </trkpt>
      <trkpt lat="43.53007" lon="6.1406">
        <ele>283</ele>
        <time>2023-03-24T14:00:16Z</time>
      </trkpt>
      <trkpt lat="43.5301" lon="6.14058">
        <ele>284</ele>
        <time>2023-03-24T14:00:20Z</time>
      </trkpt>
      <trkpt lat="43.53018" lon="6.14045">
        <ele>285</ele>
        <time>2023-03-24T14:00:32Z</time>
      </trkpt>
      <trkpt lat="43.53022" lon="6.14043">
        <ele>286</ele>
        <time>2023-03-24T14:00:38Z</time>
      </trkpt>
      <trkpt lat="43.53024" lon="6.14039">
        <ele>287</ele>
        <time>2023-03-24T14:00:44Z</time>
      </trkpt>
      <trkpt lat="43.53027" lon="6.14043">
        <ele>286</ele>
        <time>2023-03-24T14:00:51Z</time>
      </trkpt>
      <trkpt lat="43.53029" lon="6.14047">
        <ele>287</ele>
        <time>2023-03-24T14:03:25Z</time>
      </trkpt>
      <trkpt lat="43.5303" lon="6.14052">
        <ele>288</ele>
        <time>2023-03-24T14:03:30Z</time>
      </trkpt>
      <trkpt lat="43.53038" lon="6.14064">
        <ele>285</ele>
        <time>2023-03-24T14:03:45Z</time>
      </trkpt>
      <trkpt lat="43.53041" lon="6.14069">
        <ele>286</ele>
        <time>2023-03-24T14:03:50Z</time>
      </trkpt>
      <trkpt lat="43.53044" lon="6.14072">
        <ele>286</ele>
        <time>2023-03-24T14:03:54Z</time>
      </trkpt>
      <trkpt lat="43.53046" lon="6.14076">
        <ele>286</ele>
        <time>2023-03-24T14:03:58Z</time>
      </trkpt>
      <trkpt lat="43.5305" lon="6.14079">
        <ele>286</ele>
        <time>2023-03-24T14:04:03Z</time>
      </trkpt>
      <trkpt lat="43.53052" lon="6.14083">
        <ele>286</ele>
        <time>2023-03-24T14:04:07Z</time>
      </trkpt>
      <trkpt lat="43.53055" lon="6.14087">
        <ele>287</ele>
        <time>2023-03-24T14:04:12Z</time>
      </trkpt>
      <trkpt lat="43.53058" lon="6.1409">
        <ele>288</ele>
        <time>2023-03-24T14:04:16Z</time>
      </trkpt>
      <trkpt lat="43.53059" lon="6.14095">
        <ele>289</ele>
        <time>2023-03-24T14:04:21Z</time>
      </trkpt>
      <trkpt lat="43.53062" lon="6.141">
        <ele>290</ele>
        <time>2023-03-24T14:04:26Z</time>
      </trkpt>
      <trkpt lat="43.53066" lon="6.14101">
        <ele>291</ele>
        <time>2023-03-24T14:04:30Z</time>
      </trkpt>
      <trkpt lat="43.53069" lon="6.14102">
        <ele>290</ele>
        <time>2023-03-24T14:04:33Z</time>
      </trkpt>
      <trkpt lat="43.53077" lon="6.14105">
        <ele>290</ele>
        <time>2023-03-24T14:04:43Z</time>
      </trkpt>
      <trkpt lat="43.5308" lon="6.14107">
        <ele>290</ele>
        <time>2023-03-24T14:04:48Z</time>
      </trkpt>
      <trkpt lat="43.53084" lon="6.14109">
        <ele>293</ele>
        <time>2023-03-24T14:04:53Z</time>
      </trkpt>
      <trkpt lat="43.53092" lon="6.14111">
        <ele>293</ele>
        <time>2023-03-24T14:05:02Z</time>
      </trkpt>
      <trkpt lat="43.53102" lon="6.14116">
        <ele>293</ele>
        <time>2023-03-24T14:05:15Z</time>
      </trkpt>
      <trkpt lat="43.53106" lon="6.14116">
        <ele>294</ele>
        <time>2023-03-24T14:05:20Z</time>
      </trkpt>
      <trkpt lat="43.5311" lon="6.1412">
        <ele>293</ele>
        <time>2023-03-24T14:05:24Z</time>
      </trkpt>
      <trkpt lat="43.53119" lon="6.14122">
        <ele>294</ele>
        <time>2023-03-24T14:05:35Z</time>
      </trkpt>
      <trkpt lat="43.53124" lon="6.14132">
        <ele>294</ele>
        <time>2023-03-24T14:05:47Z</time>
      </trkpt>
      <trkpt lat="43.53131" lon="6.14141">
        <ele>300</ele>
        <time>2023-03-24T14:06:00Z</time>
      </trkpt>
      <trkpt lat="43.53147" lon="6.14169">
        <ele>305</ele>
        <time>2023-03-24T14:06:30Z</time>
      </trkpt>
      <trkpt lat="43.53151" lon="6.14177">
        <ele>304</ele>
        <time>2023-03-24T14:06:38Z</time>
      </trkpt>
      <trkpt lat="43.53154" lon="6.14181">
        <ele>304</ele>
        <time>2023-03-24T14:06:42Z</time>
      </trkpt>
      <trkpt lat="43.53165" lon="6.14189">
        <ele>305</ele>
        <time>2023-03-24T14:06:55Z</time>
      </trkpt>
      <trkpt lat="43.53169" lon="6.14191">
        <ele>306</ele>
        <time>2023-03-24T14:07:00Z</time>
      </trkpt>
      <trkpt lat="43.53172" lon="6.14194">
        <ele>304</ele>
        <time>2023-03-24T14:07:04Z</time>
      </trkpt>
      <trkpt lat="43.53176" lon="6.14196">
        <ele>306</ele>
        <time>2023-03-24T14:07:09Z</time>
      </trkpt>
      <trkpt lat="43.5318" lon="6.142">
        <ele>308</ele>
        <time>2023-03-24T14:07:14Z</time>
      </trkpt>
      <trkpt lat="43.53186" lon="6.14205">
        <ele>307</ele>
        <time>2023-03-24T14:07:23Z</time>
      </trkpt>
      <trkpt lat="43.53195" lon="6.14208">
        <ele>308</ele>
        <time>2023-03-24T14:07:34Z</time>
      </trkpt>
      <trkpt lat="43.5321" lon="6.14231">
        <ele>310</ele>
        <time>2023-03-24T14:07:58Z</time>
      </trkpt>
      <trkpt lat="43.53215" lon="6.14239">
        <ele>312</ele>
        <time>2023-03-24T14:08:06Z</time>
      </trkpt>
      <trkpt lat="43.53219" lon="6.14242">
        <ele>312</ele>
        <time>2023-03-24T14:08:10Z</time>
      </trkpt>
      <trkpt lat="43.53222" lon="6.14245">
        <ele>313</ele>
        <time>2023-03-24T14:08:14Z</time>
      </trkpt>
      <trkpt lat="43.53234" lon="6.14258">
        <ele>312</ele>
        <time>2023-03-24T14:08:30Z</time>
      </trkpt>
      <trkpt lat="43.53244" lon="6.1427">
        <ele>313</ele>
        <time>2023-03-24T14:08:42Z</time>
      </trkpt>
      <trkpt lat="43.53247" lon="6.14274">
        <ele>315</ele>
        <time>2023-03-24T14:08:46Z</time>
      </trkpt>
      <trkpt lat="43.53249" lon="6.14278">
        <ele>315</ele>
        <time>2023-03-24T14:08:50Z</time>
      </trkpt>
      <trkpt lat="43.53252" lon="6.14283">
        <ele>317</ele>
        <time>2023-03-24T14:08:54Z</time>
      </trkpt>
      <trkpt lat="43.53258" lon="6.1429">
        <ele>316</ele>
        <time>2023-03-24T14:09:01Z</time>
      </trkpt>
      <trkpt lat="43.53261" lon="6.14292">
        <ele>316</ele>
        <time>2023-03-24T14:09:05Z</time>
      </trkpt>
      <trkpt lat="43.53264" lon="6.14296">
        <ele>318</ele>
        <time>2023-03-24T14:09:09Z</time>
      </trkpt>
      <trkpt lat="43.53289" lon="6.14317">
        <ele>321</ele>
        <time>2023-03-24T14:09:37Z</time>
      </trkpt>
      <trkpt lat="43.53291" lon="6.14322">
        <ele>321</ele>
        <time>2023-03-24T14:09:42Z</time>
      </trkpt>
      <trkpt lat="43.53317" lon="6.14332">
        <ele>320</ele>
        <time>2023-03-24T14:10:14Z</time>
      </trkpt>
      <trkpt lat="43.5332" lon="6.14333">
        <ele>319</ele>
        <time>2023-03-24T14:10:18Z</time>
      </trkpt>
      <trkpt lat="43.53324" lon="6.14335">
        <ele>319</ele>
        <time>2023-03-24T14:10:23Z</time>
      </trkpt>
      <trkpt lat="43.53324" lon="6.1434">
        <ele>321</ele>
        <time>2023-03-24T14:10:28Z</time>
      </trkpt>
      <trkpt lat="43.53325" lon="6.14344">
        <ele>323</ele>
        <time>2023-03-24T14:10:36Z</time>
      </trkpt>
      <trkpt lat="43.53329" lon="6.14346">
        <ele>322</ele>
        <time>2023-03-24T14:10:43Z</time>
      </trkpt>
      <trkpt lat="43.5333" lon="6.14351">
        <ele>323</ele>
        <time>2023-03-24T14:10:48Z</time>
      </trkpt>
      <trkpt lat="43.53334" lon="6.14353">
        <ele>321</ele>
        <time>2023-03-24T14:11:56Z</time>
      </trkpt>
      <trkpt lat="43.53337" lon="6.14356">
        <ele>320</ele>
        <time>2023-03-24T14:12:01Z</time>
      </trkpt>
      <trkpt lat="43.5334" lon="6.14361">
        <ele>319</ele>
        <time>2023-03-24T14:12:09Z</time>
      </trkpt>
      <trkpt lat="43.53343" lon="6.14359">
        <ele>320</ele>
        <time>2023-03-24T14:12:20Z</time>
      </trkpt>
      <trkpt lat="43.5334" lon="6.14356">
        <ele>321</ele>
        <time>2023-03-24T14:12:23Z</time>
      </trkpt>
      <trkpt lat="43.53337" lon="6.14352">
        <ele>322</ele>
        <time>2023-03-24T14:12:27Z</time>
      </trkpt>
      <trkpt lat="43.53329" lon="6.14339">
        <ele>322</ele>
        <time>2023-03-24T14:12:40Z</time>
      </trkpt>
      <trkpt lat="43.5333" lon="6.14339">
        <ele>321</ele>
        <time>2023-03-24T14:13:14Z</time>
      </trkpt>
      <trkpt lat="43.53333" lon="6.14342">
        <ele>320</ele>
        <time>2023-03-24T14:13:18Z</time>
      </trkpt>
      <trkpt lat="43.53333" lon="6.14347">
        <ele>320</ele>
        <time>2023-03-24T14:13:22Z</time>
      </trkpt>
      <trkpt lat="43.53335" lon="6.14351">
        <ele>318</ele>
        <time>2023-03-24T14:13:27Z</time>
      </trkpt>
      <trkpt lat="43.53338" lon="6.14355">
        <ele>317</ele>
        <time>2023-03-24T14:13:31Z</time>
      </trkpt>
      <trkpt lat="43.5334" lon="6.14359">
        <ele>317</ele>
        <time>2023-03-24T14:13:36Z</time>
      </trkpt>
      <trkpt lat="43.53342" lon="6.14363">
        <ele>316</ele>
        <time>2023-03-24T14:13:42Z</time>
      </trkpt>
      <trkpt lat="43.53345" lon="6.14359">
        <ele>317</ele>
        <time>2023-03-24T14:14:04Z</time>
      </trkpt>
      <trkpt lat="43.53348" lon="6.14356">
        <ele>317</ele>
        <time>2023-03-24T14:14:10Z</time>
      </trkpt>
      <trkpt lat="43.53348" lon="6.14357">
        <ele>318</ele>
        <time>2023-03-24T14:14:39Z</time>
      </trkpt>
      <trkpt lat="43.53346" lon="6.14361">
        <ele>317</ele>
        <time>2023-03-24T14:14:45Z</time>
      </trkpt>
      <trkpt lat="43.53344" lon="6.14365">
        <ele>318</ele>
        <time>2023-03-24T14:15:01Z</time>
      </trkpt>
      <trkpt lat="43.53344" lon="6.14371">
        <ele>317</ele>
        <time>2023-03-24T14:16:21Z</time>
      </trkpt>
      <trkpt lat="43.53342" lon="6.14376">
        <ele>316</ele>
        <time>2023-03-24T14:16:30Z</time>
      </trkpt>
      <trkpt lat="43.53339" lon="6.14379">
        <ele>316</ele>
        <time>2023-03-24T14:17:03Z</time>
      </trkpt>
      <trkpt lat="43.53336" lon="6.14382">
        <ele>319</ele>
        <time>2023-03-24T14:17:11Z</time>
      </trkpt>
      <trkpt lat="43.53318" lon="6.14408">
        <ele>323</ele>
        <time>2023-03-24T14:17:41Z</time>
      </trkpt>
      <trkpt lat="43.53314" lon="6.14417">
        <ele>323</ele>
        <time>2023-03-24T14:17:49Z</time>
      </trkpt>
      <trkpt lat="43.53312" lon="6.14422">
        <ele>323</ele>
        <time>2023-03-24T14:17:54Z</time>
      </trkpt>
      <trkpt lat="43.53302" lon="6.1445">
        <ele>323</ele>
        <time>2023-03-24T14:18:16Z</time>
      </trkpt>
      <trkpt lat="43.53295" lon="6.14482">
        <ele>316</ele>
        <time>2023-03-24T14:18:40Z</time>
      </trkpt>
      <trkpt lat="43.53293" lon="6.14486">
        <ele>316</ele>
        <time>2023-03-24T14:18:44Z</time>
      </trkpt>
      <trkpt lat="43.53287" lon="6.1449">
        <ele>313</ele>
        <time>2023-03-24T14:18:51Z</time>
      </trkpt>
      <trkpt lat="43.53279" lon="6.14501">
        <ele>312</ele>
        <time>2023-03-24T14:19:04Z</time>
      </trkpt>
      <trkpt lat="43.53272" lon="6.14505">
        <ele>310</ele>
        <time>2023-03-24T14:19:12Z</time>
      </trkpt>
      <trkpt lat="43.53265" lon="6.1451">
        <ele>310</ele>
        <time>2023-03-24T14:19:20Z</time>
      </trkpt>
      <trkpt lat="43.53262" lon="6.14512">
        <ele>311</ele>
        <time>2023-03-24T14:19:24Z</time>
      </trkpt>
      <trkpt lat="43.53256" lon="6.14518">
        <ele>310</ele>
        <time>2023-03-24T14:19:32Z</time>
      </trkpt>
      <trkpt lat="43.53254" lon="6.14523">
        <ele>310</ele>
        <time>2023-03-24T14:19:35Z</time>
      </trkpt>
      <trkpt lat="43.53251" lon="6.14527">
        <ele>310</ele>
        <time>2023-03-24T14:19:39Z</time>
      </trkpt>
      <trkpt lat="43.53226" lon="6.14554">
        <ele>313</ele>
        <time>2023-03-24T14:20:11Z</time>
      </trkpt>
      <trkpt lat="43.53223" lon="6.14555">
        <ele>312</ele>
        <time>2023-03-24T14:20:15Z</time>
      </trkpt>
      <trkpt lat="43.53224" lon="6.1455">
        <ele>308</ele>
        <time>2023-03-24T14:20:26Z</time>
      </trkpt>
      <trkpt lat="43.53228" lon="6.14546">
        <ele>309</ele>
        <time>2023-03-24T14:20:31Z</time>
      </trkpt>
      <trkpt lat="43.53234" lon="6.14539">
        <ele>311</ele>
        <time>2023-03-24T14:20:40Z</time>
      </trkpt>
      <trkpt lat="43.53234" lon="6.14534">
        <ele>311</ele>
        <time>2023-03-24T14:20:45Z</time>
      </trkpt>
      <trkpt lat="43.53232" lon="6.14523">
        <ele>311</ele>
        <time>2023-03-24T14:20:55Z</time>
      </trkpt>
      <trkpt lat="43.5323" lon="6.14519">
        <ele>310</ele>
        <time>2023-03-24T14:20:59Z</time>
      </trkpt>
      <trkpt lat="43.53226" lon="6.14517">
        <ele>310</ele>
        <time>2023-03-24T14:21:03Z</time>
      </trkpt>
      <trkpt lat="43.53219" lon="6.14512">
        <ele>312</ele>
        <time>2023-03-24T14:21:12Z</time>
      </trkpt>
      <trkpt lat="43.53207" lon="6.14515">
        <ele>312</ele>
        <time>2023-03-24T14:21:26Z</time>
      </trkpt>
      <trkpt lat="43.53204" lon="6.14512">
        <ele>311</ele>
        <time>2023-03-24T14:21:30Z</time>
      </trkpt>
      <trkpt lat="43.53197" lon="6.1451">
        <ele>311</ele>
        <time>2023-03-24T14:21:39Z</time>
      </trkpt>
      <trkpt lat="43.53182" lon="6.14511">
        <ele>314</ele>
        <time>2023-03-24T14:21:56Z</time>
      </trkpt>
      <trkpt lat="43.53178" lon="6.14512">
        <ele>314</ele>
        <time>2023-03-24T14:22:00Z</time>
      </trkpt>
      <trkpt lat="43.53175" lon="6.14514">
        <ele>315</ele>
        <time>2023-03-24T14:22:04Z</time>
      </trkpt>
      <trkpt lat="43.53171" lon="6.14516">
        <ele>314</ele>
        <time>2023-03-24T14:22:08Z</time>
      </trkpt>
      <trkpt lat="43.53168" lon="6.14518">
        <ele>314</ele>
        <time>2023-03-24T14:22:12Z</time>
      </trkpt>
      <trkpt lat="43.53165" lon="6.14521">
        <ele>316</ele>
        <time>2023-03-24T14:22:16Z</time>
      </trkpt>
      <trkpt lat="43.53158" lon="6.14524">
        <ele>318</ele>
        <time>2023-03-24T14:22:24Z</time>
      </trkpt>
      <trkpt lat="43.53154" lon="6.14524">
        <ele>317</ele>
        <time>2023-03-24T14:22:28Z</time>
      </trkpt>
      <trkpt lat="43.53142" lon="6.14527">
        <ele>313</ele>
        <time>2023-03-24T14:22:40Z</time>
      </trkpt>
      <trkpt lat="43.53139" lon="6.14528">
        <ele>313</ele>
        <time>2023-03-24T14:22:44Z</time>
      </trkpt>
      <trkpt lat="43.53135" lon="6.14529">
        <ele>311</ele>
        <time>2023-03-24T14:22:48Z</time>
      </trkpt>
      <trkpt lat="43.5312" lon="6.14535">
        <ele>312</ele>
        <time>2023-03-24T14:23:04Z</time>
      </trkpt>
      <trkpt lat="43.53117" lon="6.14536">
        <ele>312</ele>
        <time>2023-03-24T14:23:08Z</time>
      </trkpt>
      <trkpt lat="43.53113" lon="6.14537">
        <ele>312</ele>
        <time>2023-03-24T14:23:12Z</time>
      </trkpt>
      <trkpt lat="43.53102" lon="6.1454">
        <ele>311</ele>
        <time>2023-03-24T14:23:23Z</time>
      </trkpt>
      <trkpt lat="43.53098" lon="6.14541">
        <ele>311</ele>
        <time>2023-03-24T14:23:27Z</time>
      </trkpt>
      <trkpt lat="43.53078" lon="6.14547">
        <ele>311</ele>
        <time>2023-03-24T14:23:47Z</time>
      </trkpt>
      <trkpt lat="43.53075" lon="6.14548">
        <ele>311</ele>
        <time>2023-03-24T14:23:51Z</time>
      </trkpt>
      <trkpt lat="43.5306" lon="6.14556">
        <ele>310</ele>
        <time>2023-03-24T14:24:05Z</time>
      </trkpt>
      <trkpt lat="43.53057" lon="6.14558">
        <ele>309</ele>
        <time>2023-03-24T14:24:09Z</time>
      </trkpt>
      <trkpt lat="43.53049" lon="6.14563">
        <ele>308</ele>
        <time>2023-03-24T14:24:17Z</time>
      </trkpt>
      <trkpt lat="43.53045" lon="6.14565">
        <ele>307</ele>
        <time>2023-03-24T14:24:21Z</time>
      </trkpt>
      <trkpt lat="43.53015" lon="6.14579">
        <ele>310</ele>
        <time>2023-03-24T14:24:53Z</time>
      </trkpt>
      <trkpt lat="43.53011" lon="6.14581">
        <ele>311</ele>
        <time>2023-03-24T14:24:57Z</time>
      </trkpt>
      <trkpt lat="43.53" lon="6.14585">
        <ele>312</ele>
        <time>2023-03-24T14:25:09Z</time>
      </trkpt>
      <trkpt lat="43.52996" lon="6.14586">
        <ele>313</ele>
        <time>2023-03-24T14:25:13Z</time>
      </trkpt>
      <trkpt lat="43.52994" lon="6.14589">
        <ele>316</ele>
        <time>2023-03-24T14:25:18Z</time>
      </trkpt>
      <trkpt lat="43.52991" lon="6.14593">
        <ele>316</ele>
        <time>2023-03-24T14:25:52Z</time>
      </trkpt>
      <trkpt lat="43.52995" lon="6.14614">
        <ele>314</ele>
        <time>2023-03-24T14:26:08Z</time>
      </trkpt>
      <trkpt lat="43.52996" lon="6.14624">
        <ele>317</ele>
        <time>2023-03-24T14:26:16Z</time>
      </trkpt>
      <trkpt lat="43.52997" lon="6.1463">
        <ele>319</ele>
        <time>2023-03-24T14:26:20Z</time>
      </trkpt>
      <trkpt lat="43.52997" lon="6.14635">
        <ele>318</ele>
        <time>2023-03-24T14:26:24Z</time>
      </trkpt>
      <trkpt lat="43.52996" lon="6.14641">
        <ele>319</ele>
        <time>2023-03-24T14:26:28Z</time>
      </trkpt>
      <trkpt lat="43.52996" lon="6.14646">
        <ele>318</ele>
        <time>2023-03-24T14:26:32Z</time>
      </trkpt>
      <trkpt lat="43.53001" lon="6.14693">
        <ele>315</ele>
        <time>2023-03-24T14:27:04Z</time>
      </trkpt>
      <trkpt lat="43.53002" lon="6.14703">
        <ele>311</ele>
        <time>2023-03-24T14:27:11Z</time>
      </trkpt>
      <trkpt lat="43.53004" lon="6.14714">
        <ele>312</ele>
        <time>2023-03-24T14:27:19Z</time>
      </trkpt>
      <trkpt lat="43.53005" lon="6.1472">
        <ele>314</ele>
        <time>2023-03-24T14:27:23Z</time>
      </trkpt>
      <trkpt lat="43.53007" lon="6.14753">
        <ele>315</ele>
        <time>2023-03-24T14:27:47Z</time>
      </trkpt>
      <trkpt lat="43.53002" lon="6.14772">
        <ele>313</ele>
        <time>2023-03-24T14:28:01Z</time>
      </trkpt>
      <trkpt lat="43.53" lon="6.14776">
        <ele>314</ele>
        <time>2023-03-24T14:28:05Z</time>
      </trkpt>
      <trkpt lat="43.52998" lon="6.14781">
        <ele>313</ele>
        <time>2023-03-24T14:28:09Z</time>
      </trkpt>
      <trkpt lat="43.52996" lon="6.14785">
        <ele>312</ele>
        <time>2023-03-24T14:28:13Z</time>
      </trkpt>
      <trkpt lat="43.52991" lon="6.14793">
        <ele>310</ele>
        <time>2023-03-24T14:28:21Z</time>
      </trkpt>
      <trkpt lat="43.52983" lon="6.14793">
        <ele>312</ele>
        <time>2023-03-24T14:28:29Z</time>
      </trkpt>
      <trkpt lat="43.52979" lon="6.14791">
        <ele>313</ele>
        <time>2023-03-24T14:28:34Z</time>
      </trkpt>
      <trkpt lat="43.52976" lon="6.14793">
        <ele>315</ele>
        <time>2023-03-24T14:28:38Z</time>
      </trkpt>
      <trkpt lat="43.52973" lon="6.14797">
        <ele>315</ele>
        <time>2023-03-24T14:28:43Z</time>
      </trkpt>
      <trkpt lat="43.52972" lon="6.14803">
        <ele>314</ele>
        <time>2023-03-24T14:28:48Z</time>
      </trkpt>
      <trkpt lat="43.52971" lon="6.14808">
        <ele>314</ele>
        <time>2023-03-24T14:28:52Z</time>
      </trkpt>
      <trkpt lat="43.52966" lon="6.14814">
        <ele>313</ele>
        <time>2023-03-24T14:29:00Z</time>
      </trkpt>
      <trkpt lat="43.52966" lon="6.14819">
        <ele>315</ele>
        <time>2023-03-24T14:30:48Z</time>
      </trkpt>
      <trkpt lat="43.52969" lon="6.14822">
        <ele>314</ele>
        <time>2023-03-24T14:31:06Z</time>
      </trkpt>
      <trkpt lat="43.52972" lon="6.14825">
        <ele>314</ele>
        <time>2023-03-24T14:31:11Z</time>
      </trkpt>
      <trkpt lat="43.52975" lon="6.14828">
        <ele>312</ele>
        <time>2023-03-24T14:31:44Z</time>
      </trkpt>
      <trkpt lat="43.52975" lon="6.14827">
        <ele>313</ele>
        <time>2023-03-24T14:32:07Z</time>
      </trkpt>
      <trkpt lat="43.52972" lon="6.14822">
        <ele>312</ele>
        <time>2023-03-24T14:32:13Z</time>
      </trkpt>
      <trkpt lat="43.52972" lon="6.14822">
        <ele>311</ele>
        <time>2023-03-24T14:34:23Z</time>
      </trkpt>
      <trkpt lat="43.52976" lon="6.14824">
        <ele>311</ele>
        <time>2023-03-24T14:34:28Z</time>
      </trkpt>
      <trkpt lat="43.52983" lon="6.14828">
        <ele>311</ele>
        <time>2023-03-24T14:34:35Z</time>
      </trkpt>
      <trkpt lat="43.52986" lon="6.14831">
        <ele>310</ele>
        <time>2023-03-24T14:34:40Z</time>
      </trkpt>
      <trkpt lat="43.52989" lon="6.14835">
        <ele>310</ele>
        <time>2023-03-24T14:34:44Z</time>
      </trkpt>
      <trkpt lat="43.5299" lon="6.1484">
        <ele>310</ele>
        <time>2023-03-24T14:34:49Z</time>
      </trkpt>
      <trkpt lat="43.52992" lon="6.14846">
        <ele>310</ele>
        <time>2023-03-24T14:34:58Z</time>
      </trkpt>
      <trkpt lat="43.52996" lon="6.14847">
        <ele>311</ele>
        <time>2023-03-24T14:35:05Z</time>
      </trkpt>
      <trkpt lat="43.53002" lon="6.14853">
        <ele>312</ele>
        <time>2023-03-24T14:35:25Z</time>
      </trkpt>
      <trkpt lat="43.53006" lon="6.14854">
        <ele>311</ele>
        <time>2023-03-24T14:35:32Z</time>
      </trkpt>
      <trkpt lat="43.53014" lon="6.14851">
        <ele>312</ele>
        <time>2023-03-24T14:35:43Z</time>
      </trkpt>
      <trkpt lat="43.5301" lon="6.14853">
        <ele>313</ele>
        <time>2023-03-24T14:35:58Z</time>
      </trkpt>
      <trkpt lat="43.53007" lon="6.14856">
        <ele>312</ele>
        <time>2023-03-24T14:36:09Z</time>
      </trkpt>
      <trkpt lat="43.53004" lon="6.14855">
        <ele>311</ele>
        <time>2023-03-24T14:36:15Z</time>
      </trkpt>
      <trkpt lat="43.53001" lon="6.14855">
        <ele>311</ele>
        <time>2023-03-24T14:36:42Z</time>
      </trkpt>
      <trkpt lat="43.52997" lon="6.14856">
        <ele>311</ele>
        <time>2023-03-24T14:36:50Z</time>
      </trkpt>
      <trkpt lat="43.52997" lon="6.14855">
        <ele>313</ele>
        <time>2023-03-24T14:38:21Z</time>
      </trkpt>
      <trkpt lat="43.52997" lon="6.1485">
        <ele>312</ele>
        <time>2023-03-24T14:38:27Z</time>
      </trkpt>
      <trkpt lat="43.52992" lon="6.14842">
        <ele>312</ele>
        <time>2023-03-24T14:38:37Z</time>
      </trkpt>
      <trkpt lat="43.52991" lon="6.14838">
        <ele>312</ele>
        <time>2023-03-24T14:38:42Z</time>
      </trkpt>
      <trkpt lat="43.52983" lon="6.14829">
        <ele>310</ele>
        <time>2023-03-24T14:39:20Z</time>
      </trkpt>
      <trkpt lat="43.52981" lon="6.14825">
        <ele>310</ele>
        <time>2023-03-24T14:39:25Z</time>
      </trkpt>
      <trkpt lat="43.52979" lon="6.14821">
        <ele>310</ele>
        <time>2023-03-24T14:39:31Z</time>
      </trkpt>
      <trkpt lat="43.52975" lon="6.14812">
        <ele>310</ele>
        <time>2023-03-24T14:39:43Z</time>
      </trkpt>
      <trkpt lat="43.52974" lon="6.14807">
        <ele>311</ele>
        <time>2023-03-24T14:39:48Z</time>
      </trkpt>
      <trkpt lat="43.52975" lon="6.14802">
        <ele>311</ele>
        <time>2023-03-24T14:39:56Z</time>
      </trkpt>
      <trkpt lat="43.52982" lon="6.14796">
        <ele>313</ele>
        <time>2023-03-24T14:40:09Z</time>
      </trkpt>
      <trkpt lat="43.52985" lon="6.14794">
        <ele>314</ele>
        <time>2023-03-24T14:40:15Z</time>
      </trkpt>
      <trkpt lat="43.52992" lon="6.14794">
        <ele>312</ele>
        <time>2023-03-24T14:40:28Z</time>
      </trkpt>
      <trkpt lat="43.52997" lon="6.14785">
        <ele>311</ele>
        <time>2023-03-24T14:40:38Z</time>
      </trkpt>
      <trkpt lat="43.52999" lon="6.14781">
        <ele>312</ele>
        <time>2023-03-24T14:40:43Z</time>
      </trkpt>
      <trkpt lat="43.53001" lon="6.14777">
        <ele>314</ele>
        <time>2023-03-24T14:40:51Z</time>
      </trkpt>
      <trkpt lat="43.53003" lon="6.14773">
        <ele>315</ele>
        <time>2023-03-24T14:41:03Z</time>
      </trkpt>
      <trkpt lat="43.53005" lon="6.14763">
        <ele>315</ele>
        <time>2023-03-24T14:41:13Z</time>
      </trkpt>
      <trkpt lat="43.53006" lon="6.14758">
        <ele>314</ele>
        <time>2023-03-24T14:41:18Z</time>
      </trkpt>
      <trkpt lat="43.53006" lon="6.14752">
        <ele>314</ele>
        <time>2023-03-24T14:41:23Z</time>
      </trkpt>
      <trkpt lat="43.53005" lon="6.14742">
        <ele>315</ele>
        <time>2023-03-24T14:41:33Z</time>
      </trkpt>
      <trkpt lat="43.53005" lon="6.14726">
        <ele>315</ele>
        <time>2023-03-24T14:41:46Z</time>
      </trkpt>
      <trkpt lat="43.53005" lon="6.14721">
        <ele>315</ele>
        <time>2023-03-24T14:41:51Z</time>
      </trkpt>
      <trkpt lat="43.53004" lon="6.14716">
        <ele>316</ele>
        <time>2023-03-24T14:41:56Z</time>
      </trkpt>
      <trkpt lat="43.53003" lon="6.14701">
        <ele>314</ele>
        <time>2023-03-24T14:42:08Z</time>
      </trkpt>
      <trkpt lat="43.53002" lon="6.1468">
        <ele>315</ele>
        <time>2023-03-24T14:42:24Z</time>
      </trkpt>
      <trkpt lat="43.53002" lon="6.14675">
        <ele>317</ele>
        <time>2023-03-24T14:42:29Z</time>
      </trkpt>
      <trkpt lat="43.53" lon="6.1467">
        <ele>316</ele>
        <time>2023-03-24T14:42:33Z</time>
      </trkpt>
      <trkpt lat="43.52999" lon="6.14665">
        <ele>314</ele>
        <time>2023-03-24T14:42:37Z</time>
      </trkpt>
      <trkpt lat="43.52999" lon="6.14659">
        <ele>312</ele>
        <time>2023-03-24T14:42:43Z</time>
      </trkpt>
      <trkpt lat="43.53" lon="6.14655">
        <ele>310</ele>
        <time>2023-03-24T14:42:49Z</time>
      </trkpt>
      <trkpt lat="43.53" lon="6.14635">
        <ele>311</ele>
        <time>2023-03-24T14:43:05Z</time>
      </trkpt>
      <trkpt lat="43.53" lon="6.1462">
        <ele>311</ele>
        <time>2023-03-24T14:43:19Z</time>
      </trkpt>
      <trkpt lat="43.52999" lon="6.14615">
        <ele>312</ele>
        <time>2023-03-24T14:43:23Z</time>
      </trkpt>
      <trkpt lat="43.52998" lon="6.146">
        <ele>312</ele>
        <time>2023-03-24T14:43:35Z</time>
      </trkpt>
      <trkpt lat="43.52995" lon="6.14597">
        <ele>312</ele>
        <time>2023-03-24T14:43:43Z</time>
      </trkpt>
      <trkpt lat="43.52992" lon="6.146">
        <ele>311</ele>
        <time>2023-03-24T14:43:47Z</time>
      </trkpt>
      <trkpt lat="43.52983" lon="6.1461">
        <ele>312</ele>
        <time>2023-03-24T14:43:59Z</time>
      </trkpt>
      <trkpt lat="43.5298" lon="6.14613">
        <ele>311</ele>
        <time>2023-03-24T14:44:03Z</time>
      </trkpt>
      <trkpt lat="43.52977" lon="6.14617">
        <ele>311</ele>
        <time>2023-03-24T14:44:07Z</time>
      </trkpt>
      <trkpt lat="43.52974" lon="6.14621">
        <ele>309</ele>
        <time>2023-03-24T14:44:11Z</time>
      </trkpt>
      <trkpt lat="43.52965" lon="6.14629">
        <ele>309</ele>
        <time>2023-03-24T14:44:24Z</time>
      </trkpt>
      <trkpt lat="43.52943" lon="6.14663">
        <ele>314</ele>
        <time>2023-03-24T14:45:00Z</time>
      </trkpt>
      <trkpt lat="43.52935" lon="6.14669">
        <ele>315</ele>
        <time>2023-03-24T14:45:12Z</time>
      </trkpt>
      <trkpt lat="43.52926" lon="6.14691">
        <ele>315</ele>
        <time>2023-03-24T14:45:40Z</time>
      </trkpt>
      <trkpt lat="43.52925" lon="6.14703">
        <ele>312</ele>
        <time>2023-03-24T14:45:54Z</time>
      </trkpt>
      <trkpt lat="43.52917" lon="6.1471">
        <ele>310</ele>
        <time>2023-03-24T14:46:19Z</time>
      </trkpt>
      <trkpt lat="43.52908" lon="6.14704">
        <ele>314</ele>
        <time>2023-03-24T14:46:30Z</time>
      </trkpt>
      <trkpt lat="43.52904" lon="6.14702">
        <ele>300</ele>
        <time>2023-03-24T14:47:08Z</time>
      </trkpt>
      <trkpt lat="43.52902" lon="6.14707">
        <ele>302</ele>
        <time>2023-03-24T14:47:12Z</time>
      </trkpt>
      <trkpt lat="43.52901" lon="6.14712">
        <ele>299</ele>
        <time>2023-03-24T14:47:24Z</time>
      </trkpt>
      <trkpt lat="43.52907" lon="6.14725">
        <ele>291</ele>
        <time>2023-03-24T14:47:43Z</time>
      </trkpt>
      <trkpt lat="43.52907" lon="6.1473">
        <ele>290</ele>
        <time>2023-03-24T14:47:48Z</time>
      </trkpt>
      <trkpt lat="43.52903" lon="6.14738">
        <ele>290</ele>
        <time>2023-03-24T14:48:00Z</time>
      </trkpt>
      <trkpt lat="43.52905" lon="6.14762">
        <ele>280</ele>
        <time>2023-03-24T14:48:38Z</time>
      </trkpt>
      <trkpt lat="43.52904" lon="6.14769">
        <ele>276</ele>
        <time>2023-03-24T14:48:46Z</time>
      </trkpt>
      <trkpt lat="43.52904" lon="6.14774">
        <ele>275</ele>
        <time>2023-03-24T14:48:58Z</time>
      </trkpt>
      <trkpt lat="43.52905" lon="6.1478">
        <ele>272</ele>
        <time>2023-03-24T14:49:05Z</time>
      </trkpt>
      <trkpt lat="43.52906" lon="6.14785">
        <ele>272</ele>
        <time>2023-03-24T14:49:12Z</time>
      </trkpt>
      <trkpt lat="43.52906" lon="6.14791">
        <ele>269</ele>
        <time>2023-03-24T14:49:24Z</time>
      </trkpt>
      <trkpt lat="43.52903" lon="6.1479">
        <ele>270</ele>
        <time>2023-03-24T14:49:40Z</time>
      </trkpt>
      <trkpt lat="43.52904" lon="6.14785">
        <ele>268</ele>
        <time>2023-03-24T14:49:46Z</time>
      </trkpt>
      <trkpt lat="43.52899" lon="6.14771">
        <ele>262</ele>
        <time>2023-03-24T14:50:03Z</time>
      </trkpt>
      <trkpt lat="43.52896" lon="6.14768">
        <ele>263</ele>
        <time>2023-03-24T14:50:07Z</time>
      </trkpt>
      <trkpt lat="43.52889" lon="6.14776">
        <ele>268</ele>
        <time>2023-03-24T14:52:39Z</time>
      </trkpt>
      <trkpt lat="43.52889" lon="6.14789">
        <ele>270</ele>
        <time>2023-03-24T14:52:51Z</time>
      </trkpt>
      <trkpt lat="43.52892" lon="6.14801">
        <ele>267</ele>
        <time>2023-03-24T14:53:03Z</time>
      </trkpt>
      <trkpt lat="43.52897" lon="6.14812">
        <ele>266</ele>
        <time>2023-03-24T14:53:18Z</time>
      </trkpt>
      <trkpt lat="43.52898" lon="6.14817">
        <ele>265</ele>
        <time>2023-03-24T14:53:22Z</time>
      </trkpt>
      <trkpt lat="43.52908" lon="6.14827">
        <ele>264</ele>
        <time>2023-03-24T14:53:39Z</time>
      </trkpt>
      <trkpt lat="43.52912" lon="6.14825">
        <ele>264</ele>
        <time>2023-03-24T14:55:22Z</time>
      </trkpt>
      <trkpt lat="43.52915" lon="6.14823">
        <ele>263</ele>
        <time>2023-03-24T14:55:27Z</time>
      </trkpt>
      <trkpt lat="43.52919" lon="6.14821">
        <ele>262</ele>
        <time>2023-03-24T14:55:34Z</time>
      </trkpt>
      <trkpt lat="43.52922" lon="6.14816">
        <ele>262</ele>
        <time>2023-03-24T14:55:39Z</time>
      </trkpt>
      <trkpt lat="43.52926" lon="6.14808">
        <ele>259</ele>
        <time>2023-03-24T14:55:48Z</time>
      </trkpt>
      <trkpt lat="43.52929" lon="6.14813">
        <ele>262</ele>
        <time>2023-03-24T14:56:20Z</time>
      </trkpt>
      <trkpt lat="43.52928" lon="6.14813">
        <ele>263</ele>
        <time>2023-03-24T14:57:39Z</time>
      </trkpt>
      <trkpt lat="43.52933" lon="6.14809">
        <ele>258</ele>
        <time>2023-03-24T14:58:12Z</time>
      </trkpt>
      <trkpt lat="43.52937" lon="6.14808">
        <ele>258</ele>
        <time>2023-03-24T14:58:39Z</time>
      </trkpt>
      <trkpt lat="43.52939" lon="6.14813">
        <ele>254</ele>
        <time>2023-03-24T14:58:54Z</time>
      </trkpt>
      <trkpt lat="43.52938" lon="6.14819">
        <ele>255</ele>
        <time>2023-03-24T14:59:04Z</time>
      </trkpt>
      <trkpt lat="43.5294" lon="6.14823">
        <ele>254</ele>
        <time>2023-03-24T14:59:13Z</time>
      </trkpt>
      <trkpt lat="43.52941" lon="6.14828">
        <ele>255</ele>
        <time>2023-03-24T14:59:19Z</time>
      </trkpt>
      <trkpt lat="43.52941" lon="6.14834">
        <ele>256</ele>
        <time>2023-03-24T14:59:27Z</time>
      </trkpt>
      <trkpt lat="43.52945" lon="6.14836">
        <ele>256</ele>
        <time>2023-03-24T15:00:07Z</time>
      </trkpt>
      <trkpt lat="43.52948" lon="6.14838">
        <ele>256</ele>
        <time>2023-03-24T15:00:15Z</time>
      </trkpt>
      <trkpt lat="43.52955" lon="6.14841">
        <ele>256</ele>
        <time>2023-03-24T15:00:24Z</time>
      </trkpt>
      <trkpt lat="43.52959" lon="6.14839">
        <ele>254</ele>
        <time>2023-03-24T15:00:29Z</time>
      </trkpt>
      <trkpt lat="43.52964" lon="6.14839">
        <ele>252</ele>
        <time>2023-03-24T15:00:35Z</time>
      </trkpt>
      <trkpt lat="43.52975" lon="6.1485">
        <ele>252</ele>
        <time>2023-03-24T15:00:49Z</time>
      </trkpt>
      <trkpt lat="43.52974" lon="6.1486">
        <ele>254</ele>
        <time>2023-03-24T15:00:54Z</time>
      </trkpt>
      <trkpt lat="43.52976" lon="6.14857">
        <ele>257</ele>
        <time>2023-03-24T15:01:17Z</time>
      </trkpt>
      <trkpt lat="43.52968" lon="6.1485">
        <ele>261</ele>
        <time>2023-03-24T15:01:44Z</time>
      </trkpt>
      <trkpt lat="43.52958" lon="6.14846">
        <ele>273</ele>
        <time>2023-03-24T15:01:57Z</time>
      </trkpt>
      <trkpt lat="43.52952" lon="6.14843">
        <ele>275</ele>
        <time>2023-03-24T15:02:12Z</time>
      </trkpt>
      <trkpt lat="43.5295" lon="6.14838">
        <ele>272</ele>
        <time>2023-03-24T15:02:41Z</time>
      </trkpt>
      <trkpt lat="43.52953" lon="6.14833">
        <ele>270</ele>
        <time>2023-03-24T15:02:45Z</time>
      </trkpt>
      <trkpt lat="43.52954" lon="6.14828">
        <ele>269</ele>
        <time>2023-03-24T15:02:51Z</time>
      </trkpt>
      <trkpt lat="43.52954" lon="6.14833">
        <ele>269</ele>
        <time>2023-03-24T15:03:07Z</time>
      </trkpt>
      <trkpt lat="43.52953" lon="6.14838">
        <ele>271</ele>
        <time>2023-03-24T15:03:17Z</time>
      </trkpt>
      <trkpt lat="43.52949" lon="6.14836">
        <ele>271</ele>
        <time>2023-03-24T15:03:26Z</time>
      </trkpt>
      <trkpt lat="43.52948" lon="6.14832">
        <ele>270</ele>
        <time>2023-03-24T15:03:43Z</time>
      </trkpt>
      <trkpt lat="43.52946" lon="6.14827">
        <ele>268</ele>
        <time>2023-03-24T15:03:50Z</time>
      </trkpt>
      <trkpt lat="43.52947" lon="6.14822">
        <ele>265</ele>
        <time>2023-03-24T15:05:01Z</time>
      </trkpt>
      <trkpt lat="43.52953" lon="6.14816">
        <ele>265</ele>
        <time>2023-03-24T15:05:13Z</time>
      </trkpt>
      <trkpt lat="43.52959" lon="6.14814">
        <ele>265</ele>
        <time>2023-03-24T15:05:20Z</time>
      </trkpt>
      <trkpt lat="43.52949" lon="6.14821">
        <ele>265</ele>
        <time>2023-03-24T15:05:51Z</time>
      </trkpt>
      <trkpt lat="43.52954" lon="6.14823">
        <ele>268</ele>
        <time>2023-03-24T15:06:13Z</time>
      </trkpt>
      <trkpt lat="43.5296" lon="6.14823">
        <ele>265</ele>
        <time>2023-03-24T15:06:19Z</time>
      </trkpt>
      <trkpt lat="43.52966" lon="6.14826">
        <ele>264</ele>
        <time>2023-03-24T15:06:25Z</time>
      </trkpt>
      <trkpt lat="43.52968" lon="6.14833">
        <ele>264</ele>
        <time>2023-03-24T15:06:31Z</time>
      </trkpt>
      <trkpt lat="43.5297" lon="6.14848">
        <ele>264</ele>
        <time>2023-03-24T15:06:42Z</time>
      </trkpt>
      <trkpt lat="43.5297" lon="6.14855">
        <ele>265</ele>
        <time>2023-03-24T15:06:48Z</time>
      </trkpt>
      <trkpt lat="43.52973" lon="6.14867">
        <ele>268</ele>
        <time>2023-03-24T15:07:29Z</time>
      </trkpt>
      <trkpt lat="43.52979" lon="6.14878">
        <ele>274</ele>
        <time>2023-03-24T15:07:41Z</time>
      </trkpt>
      <trkpt lat="43.52985" lon="6.14887">
        <ele>278</ele>
        <time>2023-03-24T15:07:56Z</time>
      </trkpt>
      <trkpt lat="43.52994" lon="6.14892">
        <ele>274</ele>
        <time>2023-03-24T15:08:26Z</time>
      </trkpt>
      <trkpt lat="43.52996" lon="6.14905">
        <ele>281</ele>
        <time>2023-03-24T15:08:48Z</time>
      </trkpt>
      <trkpt lat="43.53" lon="6.14914">
        <ele>284</ele>
        <time>2023-03-24T15:09:19Z</time>
      </trkpt>
      <trkpt lat="43.53006" lon="6.1492">
        <ele>284</ele>
        <time>2023-03-24T15:09:32Z</time>
      </trkpt>
      <trkpt lat="43.53009" lon="6.14924">
        <ele>285</ele>
        <time>2023-03-24T15:09:38Z</time>
      </trkpt>
      <trkpt lat="43.53012" lon="6.14928">
        <ele>284</ele>
        <time>2023-03-24T15:09:44Z</time>
      </trkpt>
      <trkpt lat="43.53013" lon="6.14934">
        <ele>284</ele>
        <time>2023-03-24T15:09:48Z</time>
      </trkpt>
      <trkpt lat="43.5301" lon="6.14941">
        <ele>284</ele>
        <time>2023-03-24T15:09:55Z</time>
      </trkpt>
      <trkpt lat="43.53011" lon="6.14955">
        <ele>282</ele>
        <time>2023-03-24T15:10:09Z</time>
      </trkpt>
      <trkpt lat="43.53007" lon="6.14962">
        <ele>282</ele>
        <time>2023-03-24T15:10:18Z</time>
      </trkpt>
      <trkpt lat="43.53011" lon="6.14976">
        <ele>279</ele>
        <time>2023-03-24T15:10:26Z</time>
      </trkpt>
      <trkpt lat="43.5301" lon="6.14979">
        <ele>265</ele>
        <time>2023-03-24T15:11:20Z</time>
      </trkpt>
      <trkpt lat="43.53016" lon="6.14989">
        <ele>262</ele>
        <time>2023-03-24T15:14:11Z</time>
      </trkpt>
      <trkpt lat="43.53018" lon="6.15002">
        <ele>263</ele>
        <time>2023-03-24T15:14:25Z</time>
      </trkpt>
      <trkpt lat="43.53022" lon="6.15002">
        <ele>258</ele>
        <time>2023-03-24T15:15:25Z</time>
      </trkpt>
      <trkpt lat="43.5302" lon="6.14998">
        <ele>257</ele>
        <time>2023-03-24T15:15:30Z</time>
      </trkpt>
      <trkpt lat="43.53009" lon="6.14986">
        <ele>260</ele>
        <time>2023-03-24T15:15:51Z</time>
      </trkpt>
      <trkpt lat="43.53007" lon="6.14974">
        <ele>261</ele>
        <time>2023-03-24T15:16:01Z</time>
      </trkpt>
      <trkpt lat="43.53006" lon="6.14963">
        <ele>261</ele>
        <time>2023-03-24T15:16:10Z</time>
      </trkpt>
      <trkpt lat="43.53001" lon="6.14948">
        <ele>262</ele>
        <time>2023-03-24T15:16:25Z</time>
      </trkpt>
      <trkpt lat="43.52998" lon="6.14944">
        <ele>261</ele>
        <time>2023-03-24T15:16:30Z</time>
      </trkpt>
      <trkpt lat="43.52996" lon="6.1494">
        <ele>260</ele>
        <time>2023-03-24T15:16:35Z</time>
      </trkpt>
      <trkpt lat="43.52992" lon="6.14931">
        <ele>260</ele>
        <time>2023-03-24T15:16:46Z</time>
      </trkpt>
      <trkpt lat="43.52985" lon="6.14914">
        <ele>260</ele>
        <time>2023-03-24T15:17:02Z</time>
      </trkpt>
      <trkpt lat="43.52979" lon="6.14905">
        <ele>259</ele>
        <time>2023-03-24T15:17:13Z</time>
      </trkpt>
      <trkpt lat="43.52974" lon="6.14894">
        <ele>261</ele>
        <time>2023-03-24T15:17:25Z</time>
      </trkpt>
      <trkpt lat="43.52968" lon="6.14882">
        <ele>263</ele>
        <time>2023-03-24T15:17:37Z</time>
      </trkpt>
      <trkpt lat="43.52962" lon="6.14874">
        <ele>265</ele>
        <time>2023-03-24T15:19:05Z</time>
      </trkpt>
      <trkpt lat="43.52955" lon="6.14883">
        <ele>269</ele>
        <time>2023-03-24T15:20:46Z</time>
      </trkpt>
      <trkpt lat="43.52947" lon="6.1489">
        <ele>271</ele>
        <time>2023-03-24T15:21:07Z</time>
      </trkpt>
      <trkpt lat="43.52951" lon="6.14899">
        <ele>267</ele>
        <time>2023-03-24T15:21:28Z</time>
      </trkpt>
      <trkpt lat="43.52951" lon="6.14905">
        <ele>265</ele>
        <time>2023-03-24T15:21:34Z</time>
      </trkpt>
      <trkpt lat="43.52951" lon="6.1491">
        <ele>263</ele>
        <time>2023-03-24T15:21:38Z</time>
      </trkpt>
      <trkpt lat="43.52957" lon="6.14918">
        <ele>263</ele>
        <time>2023-03-24T15:21:51Z</time>
      </trkpt>
      <trkpt lat="43.52955" lon="6.14922">
        <ele>261</ele>
        <time>2023-03-24T15:22:00Z</time>
      </trkpt>
      <trkpt lat="43.52962" lon="6.14942">
        <ele>259</ele>
        <time>2023-03-24T15:22:30Z</time>
      </trkpt>
      <trkpt lat="43.52964" lon="6.14952">
        <ele>255</ele>
        <time>2023-03-24T15:22:39Z</time>
      </trkpt>
      <trkpt lat="43.52962" lon="6.14963">
        <ele>254</ele>
        <time>2023-03-24T15:22:48Z</time>
      </trkpt>
      <trkpt lat="43.5296" lon="6.14968">
        <ele>254</ele>
        <time>2023-03-24T15:22:54Z</time>
      </trkpt>
      <trkpt lat="43.52958" lon="6.14963">
        <ele>254</ele>
        <time>2023-03-24T15:23:01Z</time>
      </trkpt>
      <trkpt lat="43.52961" lon="6.14959">
        <ele>253</ele>
        <time>2023-03-24T15:23:04Z</time>
      </trkpt>
      <trkpt lat="43.52957" lon="6.14957">
        <ele>255</ele>
        <time>2023-03-24T15:23:09Z</time>
      </trkpt>
      <trkpt lat="43.52954" lon="6.14958">
        <ele>250</ele>
        <time>2023-03-24T15:23:35Z</time>
      </trkpt>
      <trkpt lat="43.52957" lon="6.14962">
        <ele>249</ele>
        <time>2023-03-24T15:23:45Z</time>
      </trkpt>
      <trkpt lat="43.52959" lon="6.14961">
        <ele>250</ele>
        <time>2023-03-24T15:25:51Z</time>
      </trkpt>
      <trkpt lat="43.52959" lon="6.14956">
        <ele>249</ele>
        <time>2023-03-24T15:25:57Z</time>
      </trkpt>
      <trkpt lat="43.52959" lon="6.14952">
        <ele>248</ele>
        <time>2023-03-24T15:26:02Z</time>
      </trkpt>
      <trkpt lat="43.52954" lon="6.14946">
        <ele>249</ele>
        <time>2023-03-24T15:26:20Z</time>
      </trkpt>
      <trkpt lat="43.52952" lon="6.14942">
        <ele>248</ele>
        <time>2023-03-24T15:26:28Z</time>
      </trkpt>
      <trkpt lat="43.5295" lon="6.14937">
        <ele>247</ele>
        <time>2023-03-24T15:26:34Z</time>
      </trkpt>
      <trkpt lat="43.52948" lon="6.14934">
        <ele>247</ele>
        <time>2023-03-24T15:26:44Z</time>
      </trkpt>
      <trkpt lat="43.52945" lon="6.1493">
        <ele>244</ele>
        <time>2023-03-24T15:26:53Z</time>
      </trkpt>
      <trkpt lat="43.52942" lon="6.14927">
        <ele>244</ele>
        <time>2023-03-24T15:27:00Z</time>
      </trkpt>
      <trkpt lat="43.52939" lon="6.14927">
        <ele>246</ele>
        <time>2023-03-24T15:27:06Z</time>
      </trkpt>
      <trkpt lat="43.52937" lon="6.14923">
        <ele>245</ele>
        <time>2023-03-24T15:27:11Z</time>
      </trkpt>
      <trkpt lat="43.5294" lon="6.14911">
        <ele>246</ele>
        <time>2023-03-24T15:27:27Z</time>
      </trkpt>
      <trkpt lat="43.52931" lon="6.149">
        <ele>249</ele>
        <time>2023-03-24T15:27:36Z</time>
      </trkpt>
      <trkpt lat="43.52921" lon="6.14899">
        <ele>247</ele>
        <time>2023-03-24T15:27:43Z</time>
      </trkpt>
      <trkpt lat="43.5291" lon="6.14902">
        <ele>260</ele>
        <time>2023-03-24T15:29:46Z</time>
      </trkpt>
      <trkpt lat="43.52907" lon="6.14904">
        <ele>259</ele>
        <time>2023-03-24T15:30:19Z</time>
      </trkpt>
      <trkpt lat="43.52909" lon="6.14903">
        <ele>256</ele>
        <time>2023-03-24T15:31:02Z</time>
      </trkpt>
      <trkpt lat="43.52908" lon="6.14897">
        <ele>255</ele>
        <time>2023-03-24T15:31:07Z</time>
      </trkpt>
      <trkpt lat="43.52906" lon="6.14891">
        <ele>252</ele>
        <time>2023-03-24T15:31:13Z</time>
      </trkpt>
      <trkpt lat="43.52908" lon="6.14886">
        <ele>252</ele>
        <time>2023-03-24T15:31:25Z</time>
      </trkpt>
      <trkpt lat="43.5291" lon="6.14881">
        <ele>253</ele>
        <time>2023-03-24T15:31:31Z</time>
      </trkpt>
      <trkpt lat="43.52906" lon="6.14876">
        <ele>249</ele>
        <time>2023-03-24T15:31:58Z</time>
      </trkpt>
      <trkpt lat="43.52896" lon="6.14876">
        <ele>249</ele>
        <time>2023-03-24T15:32:13Z</time>
      </trkpt>
      <trkpt lat="43.52872" lon="6.14874">
        <ele>247</ele>
        <time>2023-03-24T15:32:44Z</time>
      </trkpt>
      <trkpt lat="43.52864" lon="6.14883">
        <ele>246</ele>
        <time>2023-03-24T15:33:36Z</time>
      </trkpt>
      <trkpt lat="43.52858" lon="6.14894">
        <ele>245</ele>
        <time>2023-03-24T15:33:47Z</time>
      </trkpt>
      <trkpt lat="43.52852" lon="6.14891">
        <ele>240</ele>
        <time>2023-03-24T15:37:47Z</time>
      </trkpt>
      <trkpt lat="43.52842" lon="6.14899">
        <ele>241</ele>
        <time>2023-03-24T15:38:12Z</time>
      </trkpt>
      <trkpt lat="43.52833" lon="6.14893">
        <ele>239</ele>
        <time>2023-03-24T15:38:25Z</time>
      </trkpt>
      <trkpt lat="43.52824" lon="6.14888">
        <ele>235</ele>
        <time>2023-03-24T15:38:34Z</time>
      </trkpt>
      <trkpt lat="43.52816" lon="6.14892">
        <ele>241</ele>
        <time>2023-03-24T15:38:46Z</time>
      </trkpt>
      <trkpt lat="43.52814" lon="6.14896">
        <ele>243</ele>
        <time>2023-03-24T15:39:45Z</time>
      </trkpt>
      <trkpt lat="43.52813" lon="6.14912">
        <ele>246</ele>
        <time>2023-03-24T15:40:18Z</time>
      </trkpt>
      <trkpt lat="43.52802" lon="6.14911">
        <ele>245</ele>
        <time>2023-03-24T15:43:41Z</time>
      </trkpt>
      <trkpt lat="43.52807" lon="6.14924">
        <ele>244</ele>
        <time>2023-03-24T15:43:55Z</time>
      </trkpt>
      <trkpt lat="43.52797" lon="6.14924">
        <ele>245</ele>
        <time>2023-03-24T15:44:14Z</time>
      </trkpt>
      <trkpt lat="43.52788" lon="6.14928">
        <ele>237</ele>
        <time>2023-03-24T15:46:03Z</time>
      </trkpt>
      <trkpt lat="43.52768" lon="6.14929">
        <ele>235</ele>
        <time>2023-03-24T15:46:28Z</time>
      </trkpt>
      <trkpt lat="43.52759" lon="6.14932">
        <ele>235</ele>
        <time>2023-03-24T15:46:43Z</time>
      </trkpt>
      <trkpt lat="43.52755" lon="6.14933">
        <ele>235</ele>
        <time>2023-03-24T15:46:49Z</time>
      </trkpt>
      <trkpt lat="43.52753" lon="6.14928">
        <ele>233</ele>
        <time>2023-03-24T15:46:56Z</time>
      </trkpt>
      <trkpt lat="43.52749" lon="6.14925">
        <ele>232</ele>
        <time>2023-03-24T15:47:04Z</time>
      </trkpt>
      <trkpt lat="43.52746" lon="6.14926">
        <ele>228</ele>
        <time>2023-03-24T15:47:10Z</time>
      </trkpt>
      <trkpt lat="43.52747" lon="6.14921">
        <ele>233</ele>
        <time>2023-03-24T15:47:34Z</time>
      </trkpt>
      <trkpt lat="43.52751" lon="6.1492">
        <ele>231</ele>
        <time>2023-03-24T15:47:39Z</time>
      </trkpt>
      <trkpt lat="43.52755" lon="6.1492">
        <ele>230</ele>
        <time>2023-03-24T15:47:44Z</time>
      </trkpt>
      <trkpt lat="43.52758" lon="6.1492">
        <ele>227</ele>
        <time>2023-03-24T15:48:10Z</time>
      </trkpt>
      <trkpt lat="43.5275" lon="6.14922">
        <ele>229</ele>
        <time>2023-03-24T15:50:57Z</time>
      </trkpt>
      <trkpt lat="43.5274" lon="6.14925">
        <ele>231</ele>
        <time>2023-03-24T15:51:20Z</time>
      </trkpt>
      <trkpt lat="43.52736" lon="6.14926">
        <ele>232</ele>
        <time>2023-03-24T15:51:25Z</time>
      </trkpt>
      <trkpt lat="43.52737" lon="6.14931">
        <ele>232</ele>
        <time>2023-03-24T15:51:27Z</time>
      </trkpt>
      <trkpt lat="43.52733" lon="6.14931">
        <ele>231</ele>
        <time>2023-03-24T15:51:33Z</time>
      </trkpt>
      <trkpt lat="43.52729" lon="6.1493">
        <ele>231</ele>
        <time>2023-03-24T15:51:37Z</time>
      </trkpt>
      <trkpt lat="43.52725" lon="6.14929">
        <ele>230</ele>
        <time>2023-03-24T15:51:42Z</time>
      </trkpt>
      <trkpt lat="43.52722" lon="6.14929">
        <ele>229</ele>
        <time>2023-03-24T15:51:46Z</time>
      </trkpt>
      <trkpt lat="43.52718" lon="6.1493">
        <ele>229</ele>
        <time>2023-03-24T15:51:50Z</time>
      </trkpt>
      <trkpt lat="43.5271" lon="6.1493">
        <ele>232</ele>
        <time>2023-03-24T15:52:00Z</time>
      </trkpt>
      <trkpt lat="43.52706" lon="6.14932">
        <ele>234</ele>
        <time>2023-03-24T15:52:05Z</time>
      </trkpt>
      <trkpt lat="43.52701" lon="6.14932">
        <ele>235</ele>
        <time>2023-03-24T15:52:09Z</time>
      </trkpt>
      <trkpt lat="43.52681" lon="6.14933">
        <ele>230</ele>
        <time>2023-03-24T15:52:30Z</time>
      </trkpt>
      <trkpt lat="43.52678" lon="6.14933">
        <ele>229</ele>
        <time>2023-03-24T15:52:34Z</time>
      </trkpt>
      <trkpt lat="43.52674" lon="6.14933">
        <ele>229</ele>
        <time>2023-03-24T15:52:38Z</time>
      </trkpt>
      <trkpt lat="43.52671" lon="6.14936">
        <ele>228</ele>
        <time>2023-03-24T15:52:42Z</time>
      </trkpt>
      <trkpt lat="43.52668" lon="6.1494">
        <ele>229</ele>
        <time>2023-03-24T15:52:46Z</time>
      </trkpt>
      <trkpt lat="43.52665" lon="6.14938">
        <ele>227</ele>
        <time>2023-03-24T15:52:51Z</time>
      </trkpt>
      <trkpt lat="43.52659" lon="6.14935">
        <ele>228</ele>
        <time>2023-03-24T15:53:07Z</time>
      </trkpt>
      <trkpt lat="43.52657" lon="6.14931">
        <ele>225</ele>
        <time>2023-03-24T15:53:12Z</time>
      </trkpt>
      <trkpt lat="43.52653" lon="6.1493">
        <ele>226</ele>
        <time>2023-03-24T15:53:20Z</time>
      </trkpt>
      <trkpt lat="43.52651" lon="6.14933">
        <ele>228</ele>
        <time>2023-03-24T15:53:46Z</time>
      </trkpt>
      <trkpt lat="43.52647" lon="6.14933">
        <ele>226</ele>
        <time>2023-03-24T15:53:53Z</time>
      </trkpt>
      <trkpt lat="43.52643" lon="6.14932">
        <ele>226</ele>
        <time>2023-03-24T15:54:20Z</time>
      </trkpt>
      <trkpt lat="43.52643" lon="6.14937">
        <ele>220</ele>
        <time>2023-03-24T15:54:32Z</time>
      </trkpt>
      <trkpt lat="43.52641" lon="6.14943">
        <ele>216</ele>
        <time>2023-03-24T15:54:39Z</time>
      </trkpt>
      <trkpt lat="43.52637" lon="6.14941">
        <ele>216</ele>
        <time>2023-03-24T15:54:46Z</time>
      </trkpt>
      <trkpt lat="43.52636" lon="6.14936">
        <ele>216</ele>
        <time>2023-03-24T15:54:49Z</time>
      </trkpt>
      <trkpt lat="43.52633" lon="6.14934">
        <ele>216</ele>
        <time>2023-03-24T15:54:52Z</time>
      </trkpt>
      <trkpt lat="43.52629" lon="6.14935">
        <ele>214</ele>
        <time>2023-03-24T15:54:55Z</time>
      </trkpt>
      <trkpt lat="43.52625" lon="6.14933">
        <ele>213</ele>
        <time>2023-03-24T15:54:59Z</time>
      </trkpt>
      <trkpt lat="43.52621" lon="6.14931">
        <ele>215</ele>
        <time>2023-03-24T15:55:03Z</time>
      </trkpt>
      <trkpt lat="43.52618" lon="6.14927">
        <ele>216</ele>
        <time>2023-03-24T15:55:07Z</time>
      </trkpt>
      <trkpt lat="43.52615" lon="6.14924">
        <ele>219</ele>
        <time>2023-03-24T15:55:11Z</time>
      </trkpt>
      <trkpt lat="43.52608" lon="6.14918">
        <ele>222</ele>
        <time>2023-03-24T15:55:19Z</time>
      </trkpt>
      <trkpt lat="43.52603" lon="6.1491">
        <ele>218</ele>
        <time>2023-03-24T15:55:27Z</time>
      </trkpt>
      <trkpt lat="43.526" lon="6.14906">
        <ele>217</ele>
        <time>2023-03-24T15:55:31Z</time>
      </trkpt>
      <trkpt lat="43.52594" lon="6.149">
        <ele>215</ele>
        <time>2023-03-24T15:55:37Z</time>
      </trkpt>
      <trkpt lat="43.52587" lon="6.14897">
        <ele>213</ele>
        <time>2023-03-24T15:55:43Z</time>
      </trkpt>
      <trkpt lat="43.52584" lon="6.14897">
        <ele>212</ele>
        <time>2023-03-24T15:55:46Z</time>
      </trkpt>
      <trkpt lat="43.52579" lon="6.14898">
        <ele>212</ele>
        <time>2023-03-24T15:55:50Z</time>
      </trkpt>
      <trkpt lat="43.52568" lon="6.14897">
        <ele>210</ele>
        <time>2023-03-24T15:56:08Z</time>
      </trkpt>
      <trkpt lat="43.52564" lon="6.14895">
        <ele>209</ele>
        <time>2023-03-24T15:56:12Z</time>
      </trkpt>
      <trkpt lat="43.52562" lon="6.1489">
        <ele>210</ele>
        <time>2023-03-24T15:56:16Z</time>
      </trkpt>
      <trkpt lat="43.5256" lon="6.14885">
        <ele>212</ele>
        <time>2023-03-24T15:56:20Z</time>
      </trkpt>
      <trkpt lat="43.5256" lon="6.1488">
        <ele>214</ele>
        <time>2023-03-24T15:56:24Z</time>
      </trkpt>
      <trkpt lat="43.52561" lon="6.14874">
        <ele>216</ele>
        <time>2023-03-24T15:56:28Z</time>
      </trkpt>
      <trkpt lat="43.52563" lon="6.14864">
        <ele>216</ele>
        <time>2023-03-24T15:56:34Z</time>
      </trkpt>
      <trkpt lat="43.52564" lon="6.14859">
        <ele>216</ele>
        <time>2023-03-24T15:56:38Z</time>
      </trkpt>
      <trkpt lat="43.52559" lon="6.14844">
        <ele>219</ele>
        <time>2023-03-24T15:56:49Z</time>
      </trkpt>
      <trkpt lat="43.52557" lon="6.14839">
        <ele>219</ele>
        <time>2023-03-24T15:56:52Z</time>
      </trkpt>
      <trkpt lat="43.52555" lon="6.14829">
        <ele>218</ele>
        <time>2023-03-24T15:57:00Z</time>
      </trkpt>
      <trkpt lat="43.52555" lon="6.14824">
        <ele>218</ele>
        <time>2023-03-24T15:57:04Z</time>
      </trkpt>
      <trkpt lat="43.52553" lon="6.14807">
        <ele>218</ele>
        <time>2023-03-24T15:57:16Z</time>
      </trkpt>
      <trkpt lat="43.52552" lon="6.14802">
        <ele>218</ele>
        <time>2023-03-24T15:57:20Z</time>
      </trkpt>
      <trkpt lat="43.52552" lon="6.14791">
        <ele>217</ele>
        <time>2023-03-24T15:57:28Z</time>
      </trkpt>
      <trkpt lat="43.52561" lon="6.14765">
        <ele>216</ele>
        <time>2023-03-24T15:57:48Z</time>
      </trkpt>
      <trkpt lat="43.52563" lon="6.1476">
        <ele>217</ele>
        <time>2023-03-24T15:57:52Z</time>
      </trkpt>
      <trkpt lat="43.52562" lon="6.14754">
        <ele>217</ele>
        <time>2023-03-24T15:57:56Z</time>
      </trkpt>
      <trkpt lat="43.52562" lon="6.14749">
        <ele>214</ele>
        <time>2023-03-24T15:58:00Z</time>
      </trkpt>
      <trkpt lat="43.52563" lon="6.14743">
        <ele>210</ele>
        <time>2023-03-24T15:58:05Z</time>
      </trkpt>
      <trkpt lat="43.52562" lon="6.14733">
        <ele>212</ele>
        <time>2023-03-24T15:58:14Z</time>
      </trkpt>
      <trkpt lat="43.52566" lon="6.14724">
        <ele>214</ele>
        <time>2023-03-24T15:58:25Z</time>
      </trkpt>
      <trkpt lat="43.52567" lon="6.1472">
        <ele>215</ele>
        <time>2023-03-24T15:58:29Z</time>
      </trkpt>
      <trkpt lat="43.52572" lon="6.14709">
        <ele>213</ele>
        <time>2023-03-24T15:58:39Z</time>
      </trkpt>
      <trkpt lat="43.52579" lon="6.14701">
        <ele>211</ele>
        <time>2023-03-24T15:58:48Z</time>
      </trkpt>
      <trkpt lat="43.52588" lon="6.14703">
        <ele>219</ele>
        <time>2023-03-24T15:58:57Z</time>
      </trkpt>
      <trkpt lat="43.52595" lon="6.14695">
        <ele>216</ele>
        <time>2023-03-24T15:59:05Z</time>
      </trkpt>
      <trkpt lat="43.52602" lon="6.14686">
        <ele>213</ele>
        <time>2023-03-24T15:59:14Z</time>
      </trkpt>
      <trkpt lat="43.52609" lon="6.14678">
        <ele>211</ele>
        <time>2023-03-24T15:59:24Z</time>
      </trkpt>
      <trkpt lat="43.52618" lon="6.14672">
        <ele>213</ele>
        <time>2023-03-24T15:59:35Z</time>
      </trkpt>
      <trkpt lat="43.52625" lon="6.14665">
        <ele>212</ele>
        <time>2023-03-24T15:59:44Z</time>
      </trkpt>
      <trkpt lat="43.52629" lon="6.14652">
        <ele>213</ele>
        <time>2023-03-24T15:59:53Z</time>
      </trkpt>
      <trkpt lat="43.5263" lon="6.1464">
        <ele>215</ele>
        <time>2023-03-24T16:00:01Z</time>
      </trkpt>
      <trkpt lat="43.52634" lon="6.14588">
        <ele>214</ele>
        <time>2023-03-24T16:00:35Z</time>
      </trkpt>
      <trkpt lat="43.52637" lon="6.14575">
        <ele>214</ele>
        <time>2023-03-24T16:00:43Z</time>
      </trkpt>
      <trkpt lat="43.5264" lon="6.14563">
        <ele>214</ele>
        <time>2023-03-24T16:00:51Z</time>
      </trkpt>
      <trkpt lat="43.52643" lon="6.1455">
        <ele>215</ele>
        <time>2023-03-24T16:00:59Z</time>
      </trkpt>
      <trkpt lat="43.52644" lon="6.14537">
        <ele>214</ele>
        <time>2023-03-24T16:01:07Z</time>
      </trkpt>
      <trkpt lat="43.52644" lon="6.14525">
        <ele>214</ele>
        <time>2023-03-24T16:01:14Z</time>
      </trkpt>
      <trkpt lat="43.52648" lon="6.14512">
        <ele>216</ele>
        <time>2023-03-24T16:01:22Z</time>
      </trkpt>
      <trkpt lat="43.52653" lon="6.145">
        <ele>219</ele>
        <time>2023-03-24T16:01:29Z</time>
      </trkpt>
      <trkpt lat="43.52659" lon="6.14461">
        <ele>219</ele>
        <time>2023-03-24T16:01:54Z</time>
      </trkpt>
      <trkpt lat="43.52672" lon="6.14444">
        <ele>220</ele>
        <time>2023-03-24T16:02:12Z</time>
      </trkpt>
      <trkpt lat="43.5268" lon="6.14438">
        <ele>222</ele>
        <time>2023-03-24T16:02:21Z</time>
      </trkpt>
      <trkpt lat="43.52696" lon="6.14426">
        <ele>220</ele>
        <time>2023-03-24T16:02:38Z</time>
      </trkpt>
      <trkpt lat="43.52706" lon="6.14422">
        <ele>221</ele>
        <time>2023-03-24T16:02:47Z</time>
      </trkpt>
      <trkpt lat="43.52715" lon="6.14419">
        <ele>221</ele>
        <time>2023-03-24T16:02:55Z</time>
      </trkpt>
      <trkpt lat="43.52724" lon="6.14415">
        <ele>219</ele>
        <time>2023-03-24T16:03:04Z</time>
      </trkpt>
      <trkpt lat="43.52733" lon="6.14408">
        <ele>215</ele>
        <time>2023-03-24T16:03:13Z</time>
      </trkpt>
      <trkpt lat="43.52737" lon="6.14394">
        <ele>216</ele>
        <time>2023-03-24T16:03:23Z</time>
      </trkpt>
      <trkpt lat="43.52731" lon="6.14386">
        <ele>209</ele>
        <time>2023-03-24T16:03:34Z</time>
      </trkpt>
      <trkpt lat="43.52731" lon="6.14373">
        <ele>220</ele>
        <time>2023-03-24T16:03:50Z</time>
      </trkpt>
      <trkpt lat="43.52736" lon="6.14363">
        <ele>222</ele>
        <time>2023-03-24T16:04:02Z</time>
      </trkpt>
      <trkpt lat="43.52745" lon="6.14338">
        <ele>223</ele>
        <time>2023-03-24T16:04:23Z</time>
      </trkpt>
      <trkpt lat="43.52747" lon="6.14326">
        <ele>224</ele>
        <time>2023-03-24T16:04:33Z</time>
      </trkpt>
      <trkpt lat="43.52748" lon="6.14314">
        <ele>228</ele>
        <time>2023-03-24T16:04:42Z</time>
      </trkpt>
      <trkpt lat="43.52747" lon="6.14302">
        <ele>228</ele>
        <time>2023-03-24T16:04:52Z</time>
      </trkpt>
      <trkpt lat="43.52752" lon="6.1429">
        <ele>228</ele>
        <time>2023-03-24T16:05:03Z</time>
      </trkpt>
      <trkpt lat="43.52753" lon="6.14277">
        <ele>227</ele>
        <time>2023-03-24T16:05:14Z</time>
      </trkpt>
      <trkpt lat="43.52757" lon="6.14264">
        <ele>225</ele>
        <time>2023-03-24T16:05:24Z</time>
      </trkpt>
      <trkpt lat="43.52759" lon="6.14252">
        <ele>227</ele>
        <time>2023-03-24T16:05:34Z</time>
      </trkpt>
      <trkpt lat="43.52766" lon="6.14243">
        <ele>228</ele>
        <time>2023-03-24T16:05:43Z</time>
      </trkpt>
      <trkpt lat="43.52775" lon="6.1424">
        <ele>232</ele>
        <time>2023-03-24T16:05:52Z</time>
      </trkpt>
      <trkpt lat="43.52785" lon="6.14244">
        <ele>230</ele>
        <time>2023-03-24T16:06:02Z</time>
      </trkpt>
      <trkpt lat="43.52794" lon="6.14245">
        <ele>225</ele>
        <time>2023-03-24T16:06:17Z</time>
      </trkpt>
      <trkpt lat="43.52801" lon="6.14238">
        <ele>225</ele>
        <time>2023-03-24T16:06:28Z</time>
      </trkpt>
      <trkpt lat="43.5281" lon="6.14242">
        <ele>228</ele>
        <time>2023-03-24T16:06:41Z</time>
      </trkpt>
      <trkpt lat="43.52819" lon="6.14247">
        <ele>232</ele>
        <time>2023-03-24T16:06:54Z</time>
      </trkpt>
      <trkpt lat="43.52829" lon="6.14245">
        <ele>228</ele>
        <time>2023-03-24T16:07:15Z</time>
      </trkpt>
      <trkpt lat="43.52836" lon="6.14246">
        <ele>224</ele>
        <time>2023-03-24T16:07:27Z</time>
      </trkpt>
      <trkpt lat="43.5284" lon="6.14246">
        <ele>224</ele>
        <time>2023-03-24T16:07:33Z</time>
      </trkpt>
      <trkpt lat="43.52838" lon="6.1425">
        <ele>226</ele>
        <time>2023-03-24T16:08:06Z</time>
      </trkpt>
      <trkpt lat="43.52836" lon="6.14255">
        <ele>227</ele>
        <time>2023-03-24T16:08:16Z</time>
      </trkpt>
      <trkpt lat="43.52832" lon="6.14253">
        <ele>229</ele>
        <time>2023-03-24T16:11:08Z</time>
      </trkpt>
      <trkpt lat="43.52826" lon="6.14249">
        <ele>232</ele>
        <time>2023-03-24T16:11:35Z</time>
      </trkpt>
      <trkpt lat="43.52823" lon="6.14246">
        <ele>233</ele>
        <time>2023-03-24T16:11:44Z</time>
      </trkpt>
      <trkpt lat="43.52819" lon="6.14248">
        <ele>233</ele>
        <time>2023-03-24T16:11:55Z</time>
      </trkpt>
      <trkpt lat="43.52817" lon="6.14251">
        <ele>235</ele>
        <time>2023-03-24T16:12:01Z</time>
      </trkpt>
      <trkpt lat="43.52813" lon="6.14249">
        <ele>237</ele>
        <time>2023-03-24T16:12:08Z</time>
      </trkpt>
      <trkpt lat="43.5281" lon="6.14246">
        <ele>237</ele>
        <time>2023-03-24T16:12:15Z</time>
      </trkpt>
      <trkpt lat="43.52807" lon="6.14243">
        <ele>236</ele>
        <time>2023-03-24T16:12:21Z</time>
      </trkpt>
      <trkpt lat="43.52803" lon="6.14244">
        <ele>235</ele>
        <time>2023-03-24T16:12:31Z</time>
      </trkpt>
      <trkpt lat="43.528" lon="6.14246">
        <ele>238</ele>
        <time>2023-03-24T16:12:37Z</time>
      </trkpt>
      <trkpt lat="43.52796" lon="6.14249">
        <ele>237</ele>
        <time>2023-03-24T16:12:44Z</time>
      </trkpt>
      <trkpt lat="43.52788" lon="6.14247">
        <ele>236</ele>
        <time>2023-03-24T16:12:56Z</time>
      </trkpt>
      <trkpt lat="43.52784" lon="6.14249">
        <ele>242</ele>
        <time>2023-03-24T16:13:04Z</time>
      </trkpt>
      <trkpt lat="43.52782" lon="6.14252">
        <ele>247</ele>
        <time>2023-03-24T16:13:12Z</time>
      </trkpt>
      <trkpt lat="43.52778" lon="6.14254">
        <ele>250</ele>
        <time>2023-03-24T16:13:18Z</time>
      </trkpt>
      <trkpt lat="43.52775" lon="6.1425">
        <ele>251</ele>
        <time>2023-03-24T16:13:24Z</time>
      </trkpt>
      <trkpt lat="43.52772" lon="6.14247">
        <ele>245</ele>
        <time>2023-03-24T16:13:36Z</time>
      </trkpt>
      <trkpt lat="43.52763" lon="6.14248">
        <ele>244</ele>
        <time>2023-03-24T16:13:54Z</time>
      </trkpt>
      <trkpt lat="43.52757" lon="6.14256">
        <ele>241</ele>
        <time>2023-03-24T16:14:06Z</time>
      </trkpt>
      <trkpt lat="43.52756" lon="6.14262">
        <ele>241</ele>
        <time>2023-03-24T16:14:13Z</time>
      </trkpt>
      <trkpt lat="43.52757" lon="6.14267">
        <ele>240</ele>
        <time>2023-03-24T16:14:17Z</time>
      </trkpt>
      <trkpt lat="43.52757" lon="6.14272">
        <ele>239</ele>
        <time>2023-03-24T16:14:23Z</time>
      </trkpt>
      <trkpt lat="43.52759" lon="6.14276">
        <ele>239</ele>
        <time>2023-03-24T16:14:25Z</time>
      </trkpt>
      <trkpt lat="43.52761" lon="6.1428">
        <ele>238</ele>
        <time>2023-03-24T16:14:29Z</time>
      </trkpt>
      <trkpt lat="43.52762" lon="6.14285">
        <ele>240</ele>
        <time>2023-03-24T16:14:35Z</time>
      </trkpt>
      <trkpt lat="43.52761" lon="6.14291">
        <ele>237</ele>
        <time>2023-03-24T16:14:40Z</time>
      </trkpt>
      <trkpt lat="43.52758" lon="6.14295">
        <ele>236</ele>
        <time>2023-03-24T16:14:45Z</time>
      </trkpt>
      <trkpt lat="43.52754" lon="6.14298">
        <ele>236</ele>
        <time>2023-03-24T16:14:48Z</time>
      </trkpt>
      <trkpt lat="43.52752" lon="6.14302">
        <ele>231</ele>
        <time>2023-03-24T16:14:53Z</time>
      </trkpt>
      <trkpt lat="43.5275" lon="6.14308">
        <ele>230</ele>
        <time>2023-03-24T16:14:59Z</time>
      </trkpt>
      <trkpt lat="43.5275" lon="6.14312">
        <ele>232</ele>
        <time>2023-03-24T16:15:04Z</time>
      </trkpt>
      <trkpt lat="43.52751" lon="6.14317">
        <ele>232</ele>
        <time>2023-03-24T16:15:08Z</time>
      </trkpt>
      <trkpt lat="43.52753" lon="6.14322">
        <ele>232</ele>
        <time>2023-03-24T16:15:13Z</time>
      </trkpt>
      <trkpt lat="43.52758" lon="6.14334">
        <ele>232</ele>
        <time>2023-03-24T16:15:24Z</time>
      </trkpt>
      <trkpt lat="43.5276" lon="6.1434">
        <ele>232</ele>
        <time>2023-03-24T16:15:30Z</time>
      </trkpt>
      <trkpt lat="43.52757" lon="6.14345">
        <ele>233</ele>
        <time>2023-03-24T16:15:33Z</time>
      </trkpt>
      <trkpt lat="43.52754" lon="6.14349">
        <ele>232</ele>
        <time>2023-03-24T16:15:36Z</time>
      </trkpt>
      <trkpt lat="43.52744" lon="6.14371">
        <ele>230</ele>
        <time>2023-03-24T16:15:53Z</time>
      </trkpt>
      <trkpt lat="43.52742" lon="6.14377">
        <ele>231</ele>
        <time>2023-03-24T16:15:57Z</time>
      </trkpt>
      <trkpt lat="43.52741" lon="6.14388">
        <ele>232</ele>
        <time>2023-03-24T16:16:07Z</time>
      </trkpt>
      <trkpt lat="43.52742" lon="6.14393">
        <ele>233</ele>
        <time>2023-03-24T16:16:10Z</time>
      </trkpt>
      <trkpt lat="43.52742" lon="6.14398">
        <ele>236</ele>
        <time>2023-03-24T16:16:15Z</time>
      </trkpt>
      <trkpt lat="43.52742" lon="6.14404">
        <ele>236</ele>
        <time>2023-03-24T16:16:22Z</time>
      </trkpt>
      <trkpt lat="43.52742" lon="6.14407">
        <ele>231</ele>
        <time>2023-03-24T16:16:57Z</time>
      </trkpt>
      <trkpt lat="43.5274" lon="6.14411">
        <ele>230</ele>
        <time>2023-03-24T16:17:04Z</time>
      </trkpt>
      <trkpt lat="43.52736" lon="6.14412">
        <ele>230</ele>
        <time>2023-03-24T16:17:07Z</time>
      </trkpt>
      <trkpt lat="43.52732" lon="6.14415">
        <ele>231</ele>
        <time>2023-03-24T16:17:11Z</time>
      </trkpt>
      <trkpt lat="43.52729" lon="6.14418">
        <ele>231</ele>
        <time>2023-03-24T16:17:14Z</time>
      </trkpt>
      <trkpt lat="43.52721" lon="6.1442">
        <ele>227</ele>
        <time>2023-03-24T16:17:20Z</time>
      </trkpt>
      <trkpt lat="43.52717" lon="6.14423">
        <ele>228</ele>
        <time>2023-03-24T16:17:24Z</time>
      </trkpt>
      <trkpt lat="43.52714" lon="6.14426">
        <ele>229</ele>
        <time>2023-03-24T16:17:29Z</time>
      </trkpt>
      <trkpt lat="43.5271" lon="6.14427">
        <ele>227</ele>
        <time>2023-03-24T16:17:33Z</time>
      </trkpt>
      <trkpt lat="43.52706" lon="6.14427">
        <ele>226</ele>
        <time>2023-03-24T16:17:38Z</time>
      </trkpt>
      <trkpt lat="43.52692" lon="6.14438">
        <ele>226</ele>
        <time>2023-03-24T16:17:54Z</time>
      </trkpt>
      <trkpt lat="43.52684" lon="6.14442">
        <ele>224</ele>
        <time>2023-03-24T16:18:02Z</time>
      </trkpt>
      <trkpt lat="43.5268" lon="6.14443">
        <ele>224</ele>
        <time>2023-03-24T16:18:05Z</time>
      </trkpt>
      <trkpt lat="43.52678" lon="6.14447">
        <ele>226</ele>
        <time>2023-03-24T16:18:10Z</time>
      </trkpt>
      <trkpt lat="43.52675" lon="6.1445">
        <ele>227</ele>
        <time>2023-03-24T16:18:14Z</time>
      </trkpt>
      <trkpt lat="43.52672" lon="6.14453">
        <ele>224</ele>
        <time>2023-03-24T16:18:19Z</time>
      </trkpt>
      <trkpt lat="43.5267" lon="6.14457">
        <ele>224</ele>
        <time>2023-03-24T16:18:23Z</time>
      </trkpt>
      <trkpt lat="43.52667" lon="6.1446">
        <ele>224</ele>
        <time>2023-03-24T16:18:40Z</time>
      </trkpt>
      <trkpt lat="43.52663" lon="6.14462">
        <ele>225</ele>
        <time>2023-03-24T16:18:44Z</time>
      </trkpt>
      <trkpt lat="43.52661" lon="6.14467">
        <ele>224</ele>
        <time>2023-03-24T16:18:49Z</time>
      </trkpt>
      <trkpt lat="43.52662" lon="6.14472">
        <ele>223</ele>
        <time>2023-03-24T16:18:54Z</time>
      </trkpt>
      <trkpt lat="43.5266" lon="6.14495">
        <ele>225</ele>
        <time>2023-03-24T16:19:11Z</time>
      </trkpt>
      <trkpt lat="43.52659" lon="6.14501">
        <ele>225</ele>
        <time>2023-03-24T16:19:14Z</time>
      </trkpt>
      <trkpt lat="43.52657" lon="6.14505">
        <ele>225</ele>
        <time>2023-03-24T16:19:17Z</time>
      </trkpt>
      <trkpt lat="43.52655" lon="6.14509">
        <ele>225</ele>
        <time>2023-03-24T16:19:21Z</time>
      </trkpt>
      <trkpt lat="43.52654" lon="6.14514">
        <ele>223</ele>
        <time>2023-03-24T16:19:25Z</time>
      </trkpt>
      <trkpt lat="43.52653" lon="6.14519">
        <ele>222</ele>
        <time>2023-03-24T16:19:28Z</time>
      </trkpt>
      <trkpt lat="43.5265" lon="6.14536">
        <ele>220</ele>
        <time>2023-03-24T16:19:39Z</time>
      </trkpt>
      <trkpt lat="43.52651" lon="6.14541">
        <ele>220</ele>
        <time>2023-03-24T16:19:42Z</time>
      </trkpt>
      <trkpt lat="43.5265" lon="6.14547">
        <ele>219</ele>
        <time>2023-03-24T16:19:46Z</time>
      </trkpt>
      <trkpt lat="43.52646" lon="6.14569">
        <ele>217</ele>
        <time>2023-03-24T16:20:02Z</time>
      </trkpt>
      <trkpt lat="43.52646" lon="6.14574">
        <ele>216</ele>
        <time>2023-03-24T16:20:06Z</time>
      </trkpt>
      <trkpt lat="43.52644" lon="6.14587">
        <ele>214</ele>
        <time>2023-03-24T16:20:14Z</time>
      </trkpt>
      <trkpt lat="43.52643" lon="6.14592">
        <ele>214</ele>
        <time>2023-03-24T16:20:17Z</time>
      </trkpt>
      <trkpt lat="43.52642" lon="6.14598">
        <ele>216</ele>
        <time>2023-03-24T16:20:21Z</time>
      </trkpt>
      <trkpt lat="43.52641" lon="6.14602">
        <ele>217</ele>
        <time>2023-03-24T16:20:24Z</time>
      </trkpt>
      <trkpt lat="43.52641" lon="6.14609">
        <ele>218</ele>
        <time>2023-03-24T16:20:28Z</time>
      </trkpt>
      <trkpt lat="43.5264" lon="6.14614">
        <ele>217</ele>
        <time>2023-03-24T16:20:32Z</time>
      </trkpt>
      <trkpt lat="43.5264" lon="6.14619">
        <ele>217</ele>
        <time>2023-03-24T16:20:35Z</time>
      </trkpt>
      <trkpt lat="43.52636" lon="6.14634">
        <ele>217</ele>
        <time>2023-03-24T16:20:44Z</time>
      </trkpt>
      <trkpt lat="43.52636" lon="6.14639">
        <ele>216</ele>
        <time>2023-03-24T16:20:47Z</time>
      </trkpt>
      <trkpt lat="43.52637" lon="6.14649">
        <ele>215</ele>
        <time>2023-03-24T16:20:53Z</time>
      </trkpt>
      <trkpt lat="43.52633" lon="6.14658">
        <ele>214</ele>
        <time>2023-03-24T16:21:00Z</time>
      </trkpt>
      <trkpt lat="43.52631" lon="6.14663">
        <ele>213</ele>
        <time>2023-03-24T16:21:05Z</time>
      </trkpt>
      <trkpt lat="43.52628" lon="6.14666">
        <ele>214</ele>
        <time>2023-03-24T16:21:08Z</time>
      </trkpt>
      <trkpt lat="43.52625" lon="6.14669">
        <ele>214</ele>
        <time>2023-03-24T16:21:12Z</time>
      </trkpt>
      <trkpt lat="43.52622" lon="6.14672">
        <ele>216</ele>
        <time>2023-03-24T16:21:17Z</time>
      </trkpt>
      <trkpt lat="43.52618" lon="6.14674">
        <ele>214</ele>
        <time>2023-03-24T16:21:22Z</time>
      </trkpt>
      <trkpt lat="43.52614" lon="6.14675">
        <ele>215</ele>
        <time>2023-03-24T16:21:27Z</time>
      </trkpt>
      <trkpt lat="43.52611" lon="6.14679">
        <ele>214</ele>
        <time>2023-03-24T16:21:31Z</time>
      </trkpt>
      <trkpt lat="43.52608" lon="6.14682">
        <ele>215</ele>
        <time>2023-03-24T16:21:36Z</time>
      </trkpt>
      <trkpt lat="43.52602" lon="6.14691">
        <ele>214</ele>
        <time>2023-03-24T16:21:46Z</time>
      </trkpt>
      <trkpt lat="43.52599" lon="6.14693">
        <ele>215</ele>
        <time>2023-03-24T16:21:51Z</time>
      </trkpt>
      <trkpt lat="43.5259" lon="6.14701">
        <ele>215</ele>
        <time>2023-03-24T16:22:04Z</time>
      </trkpt>
      <trkpt lat="43.52584" lon="6.14707">
        <ele>215</ele>
        <time>2023-03-24T16:22:12Z</time>
      </trkpt>
      <trkpt lat="43.52581" lon="6.14712">
        <ele>218</ele>
        <time>2023-03-24T16:22:16Z</time>
      </trkpt>
      <trkpt lat="43.52579" lon="6.14716">
        <ele>216</ele>
        <time>2023-03-24T16:22:20Z</time>
      </trkpt>
      <trkpt lat="43.52577" lon="6.14726">
        <ele>217</ele>
        <time>2023-03-24T16:22:30Z</time>
      </trkpt>
      <trkpt lat="43.52574" lon="6.14736">
        <ele>216</ele>
        <time>2023-03-24T16:22:40Z</time>
      </trkpt>
      <trkpt lat="43.52571" lon="6.14751">
        <ele>213</ele>
        <time>2023-03-24T16:22:54Z</time>
      </trkpt>
      <trkpt lat="43.5257" lon="6.14756">
        <ele>212</ele>
        <time>2023-03-24T16:23:01Z</time>
      </trkpt>
      <trkpt lat="43.52569" lon="6.14767">
        <ele>214</ele>
        <time>2023-03-24T16:23:10Z</time>
      </trkpt>
      <trkpt lat="43.52567" lon="6.1477">
        <ele>214</ele>
        <time>2023-03-24T16:23:13Z</time>
      </trkpt>
      <trkpt lat="43.52564" lon="6.14772">
        <ele>213</ele>
        <time>2023-03-24T16:23:16Z</time>
      </trkpt>
      <trkpt lat="43.52558" lon="6.14787">
        <ele>213</ele>
        <time>2023-03-24T16:23:28Z</time>
      </trkpt>
      <trkpt lat="43.52558" lon="6.14792">
        <ele>212</ele>
        <time>2023-03-24T16:23:32Z</time>
      </trkpt>
      <trkpt lat="43.52557" lon="6.14798">
        <ele>211</ele>
        <time>2023-03-24T16:23:37Z</time>
      </trkpt>
      <trkpt lat="43.52557" lon="6.14814">
        <ele>211</ele>
        <time>2023-03-24T16:23:48Z</time>
      </trkpt>
      <trkpt lat="43.52557" lon="6.14819">
        <ele>212</ele>
        <time>2023-03-24T16:23:52Z</time>
      </trkpt>
      <trkpt lat="43.52557" lon="6.1483">
        <ele>212</ele>
        <time>2023-03-24T16:24:02Z</time>
      </trkpt>
      <trkpt lat="43.52558" lon="6.14835">
        <ele>213</ele>
        <time>2023-03-24T16:24:06Z</time>
      </trkpt>
      <trkpt lat="43.52564" lon="6.1486">
        <ele>211</ele>
        <time>2023-03-24T16:24:26Z</time>
      </trkpt>
      <trkpt lat="43.52563" lon="6.14865">
        <ele>211</ele>
        <time>2023-03-24T16:24:30Z</time>
      </trkpt>
      <trkpt lat="43.52559" lon="6.14881">
        <ele>213</ele>
        <time>2023-03-24T16:24:42Z</time>
      </trkpt>
      <trkpt lat="43.52559" lon="6.14898">
        <ele>215</ele>
        <time>2023-03-24T16:24:54Z</time>
      </trkpt>
      <trkpt lat="43.52556" lon="6.14902">
        <ele>213</ele>
        <time>2023-03-24T16:24:58Z</time>
      </trkpt>
      <trkpt lat="43.52553" lon="6.14904">
        <ele>214</ele>
        <time>2023-03-24T16:25:02Z</time>
      </trkpt>
      <trkpt lat="43.5255" lon="6.14908">
        <ele>213</ele>
        <time>2023-03-24T16:25:06Z</time>
      </trkpt>
      <trkpt lat="43.52552" lon="6.14913">
        <ele>213</ele>
        <time>2023-03-24T16:25:10Z</time>
      </trkpt>
      <trkpt lat="43.52553" lon="6.14919">
        <ele>212</ele>
        <time>2023-03-24T16:25:14Z</time>
      </trkpt>
      <trkpt lat="43.52551" lon="6.14924">
        <ele>211</ele>
        <time>2023-03-24T16:25:18Z</time>
      </trkpt>
      <trkpt lat="43.5255" lon="6.14929">
        <ele>211</ele>
        <time>2023-03-24T16:25:22Z</time>
      </trkpt>
      <trkpt lat="43.52537" lon="6.14942">
        <ele>212</ele>
        <time>2023-03-24T16:25:38Z</time>
      </trkpt>
      <trkpt lat="43.52535" lon="6.14947">
        <ele>213</ele>
        <time>2023-03-24T16:25:42Z</time>
      </trkpt>
      <trkpt lat="43.52532" lon="6.14951">
        <ele>212</ele>
        <time>2023-03-24T16:25:46Z</time>
      </trkpt>
      <trkpt lat="43.52519" lon="6.14966">
        <ele>214</ele>
        <time>2023-03-24T16:26:02Z</time>
      </trkpt>
      <trkpt lat="43.52516" lon="6.1497">
        <ele>214</ele>
        <time>2023-03-24T16:26:06Z</time>
      </trkpt>
      <trkpt lat="43.52506" lon="6.1498">
        <ele>214</ele>
        <time>2023-03-24T16:26:18Z</time>
      </trkpt>
      <trkpt lat="43.52496" lon="6.14987">
        <ele>216</ele>
        <time>2023-03-24T16:26:30Z</time>
      </trkpt>
      <trkpt lat="43.52495" lon="6.14992">
        <ele>217</ele>
        <time>2023-03-24T16:26:34Z</time>
      </trkpt>
      <trkpt lat="43.52493" lon="6.14997">
        <ele>216</ele>
        <time>2023-03-24T16:26:38Z</time>
      </trkpt>
      <trkpt lat="43.52481" lon="6.15019">
        <ele>211</ele>
        <time>2023-03-24T16:26:58Z</time>
      </trkpt>
      <trkpt lat="43.5248" lon="6.15023">
        <ele>211</ele>
        <time>2023-03-24T16:27:01Z</time>
      </trkpt>
      <trkpt lat="43.52478" lon="6.15028">
        <ele>212</ele>
        <time>2023-03-24T16:27:05Z</time>
      </trkpt>
      <trkpt lat="43.52477" lon="6.15032">
        <ele>211</ele>
        <time>2023-03-24T16:27:09Z</time>
      </trkpt>
    </trkseg>
  </trk>
</gpx>